Time,TemperatureF,DewpointF,PressureIn,WindDirection,WindDirectionDegrees,WindSpeedMPH,WindSpeedGustMPH,Humidity,HourlyPrecipIn,Conditions,Clouds,dailyrainin,SoftwareType,DateUTC
2013-09-11 00:01:00,81.4,73.9,29.99,SSE,150,6.9,0.0,78,0.00,CLR,,0.00,WeatherDisplay:10.37,2013-09-11 04:01:00,
2013-09-11 00:06:00,81.4,73.9,29.99,SSE,164,5.8,5.8,78,0.00,CLR,,0.00,WeatherDisplay:10.37,2013-09-11 04:06:00,
2013-09-11 00:07:00,81.4,73.9,29.99,SSE,164,2.3,2.8,78,0.00,CLR,,0.00,WeatherDisplay:10.37,2013-09-11 04:07:00,
2013-09-11 00:11:00,81.4,73.5,29.99,SSW,193,0.0,0.0,77,0.00,CLR,,0.00,WeatherDisplay:10.37,2013-09-11 04:11:00,
2013-09-11 00:12:00,81.4,73.5,29.99,SSE,148,6.9,6.9,77,0.00,CLR,,0.00,WeatherDisplay:10.37,2013-09-11 04:12:00,
2013-09-11 00:13:00,81.4,73.5,29.99,SSE,148,0.0,0.0,77,0.00,CLR,,0.00,WeatherDisplay:10.37,2013-09-11 04:13:00,
2013-09-11 00:16:00,81.2,73.7,29.99,SSW,208,0.0,0.0,78,0.00,CLR,,0.00,WeatherDisplay:10.37,2013-09-11 04:16:00,
2013-09-11 00:17:00,81.2,73.7,29.99,SE,143,0.0,0.0,78,0.00,CLR,,0.00,WeatherDisplay:10.37,2013-09-11 04:17:00,
2013-09-11 00:18:00,81.2,73.7,29.99,SSE,152,0.0,0.3,78,0.00,CLR,,0.00,WeatherDisplay:10.37,2013-09-11 04:18:00,
2013-09-11 00:21:00,81.2,73.7,29.99,SSE,160,16.1,16.1,78,0.00,CLR,,0.00,WeatherDisplay:10.37,2013-09-11 04:21:00,
2013-09-11 00:22:00,81.2,73.7,29.99,SSE,158,3.5,3.5,78,0.00,CLR,,0.00,WeatherDisplay:10.37,2013-09-11 04:22:00,
2013-09-11 00:23:00,81.2,73.7,29.99,SSE,160,0.0,0.0,78,0.00,CLR,,0.00,WeatherDisplay:10.37,2013-09-11 04:23:00,
2013-09-11 00:24:00,81.2,73.7,29.99,SSE,162,0.0,0.0,78,0.00,CLR,,0.00,WeatherDisplay:10.37,2013-09-11 04:24:00,
2013-09-11 00:26:00,81.1,73.6,29.99,SSE,151,0.0,0.6,78,0.00,CLR,,0.00,WeatherDisplay:10.37,2013-09-11 04:26:00,
2013-09-11 00:27:00,81.1,73.6,29.99,SSE,151,3.5,3.5,78,0.00,CLR,,0.00,WeatherDisplay:10.37,2013-09-11 04:27:00,
2013-09-11 00:28:00,81.1,73.6,29.99,SE,136,6.9,6.9,78,0.00,CLR,,0.00,WeatherDisplay:10.37,2013-09-11 04:28:00,
2013-09-11 00:29:00,81.1,73.6,29.99,SSE,152,0.0,0.0,78,0.00,CLR,,0.00,WeatherDisplay:10.37,2013-09-11 04:29:00,
2013-09-11 00:31:00,81.1,73.6,29.99,SSE,164,2.3,2.3,78,0.00,CLR,,0.00,WeatherDisplay:10.37,2013-09-11 04:31:00,
2013-09-11 00:32:00,81.1,73.6,29.99,WNW,284,1.1,1.1,78,0.00,CLR,,0.00,WeatherDisplay:10.37,2013-09-11 04:32:00,
2013-09-11 00:33:00,81.1,73.6,29.99,SSE,164,1.1,0.0,78,0.00,CLR,,0.00,WeatherDisplay:10.37,2013-09-11 04:33:00,
2013-09-11 00:34:00,81.1,73.6,29.99,SSE,164,0.0,0.0,78,0.00,CLR,,0.00,WeatherDisplay:10.37,2013-09-11 04:34:00,
2013-09-11 00:35:00,81.1,73.6,29.99,SSE,155,5.8,5.8,78,0.00,CLR,,0.00,WeatherDisplay:10.37,2013-09-11 04:35:00,
2013-09-11 00:37:00,81.1,73.6,29.99,SE,128,0.0,0.0,78,0.00,CLR,,0.00,WeatherDisplay:10.37,2013-09-11 04:37:00,
2013-09-11 00:38:00,81.1,73.6,29.99,SSE,151,6.0,6.0,78,0.00,CLR,,0.00,WeatherDisplay:10.37,2013-09-11 04:38:00,
2013-09-11 00:39:00,81.1,73.6,29.99,SSE,167,5.8,5.8,78,0.00,CLR,,0.00,WeatherDisplay:10.37,2013-09-11 04:39:00,
2013-09-11 00:41:00,81.1,73.6,29.99,South,181,5.8,5.8,78,0.00,CLR,,0.00,WeatherDisplay:10.37,2013-09-11 04:41:00,
2013-09-11 00:42:00,81.1,73.6,29.99,SSE,161,3.5,0.0,78,0.00,CLR,,0.00,WeatherDisplay:10.37,2013-09-11 04:42:00,
2013-09-11 00:43:00,81.1,73.6,29.99,South,188,3.5,3.5,78,0.00,CLR,,0.00,WeatherDisplay:10.37,2013-09-11 04:43:00,
2013-09-11 00:46:00,81.1,73.6,29.99,SW,232,1.1,1.1,78,0.00,CLR,,0.00,WeatherDisplay:10.37,2013-09-11 04:46:00,
2013-09-11 00:47:00,81.1,73.6,29.99,SSE,162,3.5,3.5,78,0.00,CLR,,0.00,WeatherDisplay:10.37,2013-09-11 04:47:00,
2013-09-11 00:48:00,81.1,73.6,29.99,SSE,162,0.0,0.0,78,0.00,CLR,,0.00,WeatherDisplay:10.37,2013-09-11 04:48:00,
2013-09-11 00:51:00,81.1,73.6,29.99,SE,143,5.8,0.0,78,0.00,CLR,,0.00,WeatherDisplay:10.37,2013-09-11 04:51:00,
2013-09-11 00:52:00,81.1,73.6,29.99,SE,144,0.0,0.0,78,0.00,CLR,,0.00,WeatherDisplay:10.37,2013-09-11 04:52:00,
2013-09-11 00:53:00,81.1,73.6,29.99,South,171,5.8,5.8,78,0.00,CLR,,0.00,WeatherDisplay:10.37,2013-09-11 04:53:00,
2013-09-11 00:57:00,81.1,73.6,30.00,NW,308,8.1,0.0,78,0.00,CLR,,0.00,WeatherDisplay:10.37,2013-09-11 04:57:00,
2013-09-11 00:58:00,81.1,73.6,30.00,ENE,59,0.0,0.0,78,0.00,CLR,,0.00,WeatherDisplay:10.37,2013-09-11 04:58:00,
2013-09-11 01:00:00,81.1,73.6,30.00,SSE,158,1.1,1.1,78,0.00,CLR,,0.00,WeatherDisplay:10.37,2013-09-11 05:00:00,
2013-09-11 01:02:00,81.1,73.6,30.00,South,176,0.0,0.0,78,0.00,CLR,,0.00,WeatherDisplay:10.37,2013-09-11 05:02:00,
2013-09-11 01:03:00,81.1,73.6,29.99,SSE,164,1.1,0.0,78,0.00,CLR,,0.00,WeatherDisplay:10.37,2013-09-11 05:03:00,
2013-09-11 01:05:00,81.1,73.6,29.99,SW,215,5.8,0.0,78,0.00,CLR,,0.00,WeatherDisplay:10.37,2013-09-11 05:05:00,
2013-09-11 01:07:00,80.9,73.8,29.99,South,178,2.3,2.3,79,0.00,CLR,,0.00,WeatherDisplay:10.37,2013-09-11 05:07:00,
2013-09-11 01:08:00,80.9,73.8,29.99,SSW,198,0.0,0.0,79,0.00,CLR,,0.00,WeatherDisplay:10.37,2013-09-11 05:08:00,
2013-09-11 01:09:00,80.9,73.8,29.99,SSW,196,0.0,0.0,79,0.00,CLR,,0.00,WeatherDisplay:10.37,2013-09-11 05:09:00,
2013-09-11 01:11:00,80.9,73.8,29.99,SW,229,0.0,0.0,79,0.00,CLR,,0.00,WeatherDisplay:10.37,2013-09-11 05:11:00,
2013-09-11 01:12:00,80.9,73.8,29.99,SSW,210,10.4,10.4,79,0.00,CLR,,0.00,WeatherDisplay:10.37,2013-09-11 05:12:00,
2013-09-11 01:13:00,80.9,73.8,29.99,SSW,210,3.5,0.0,79,0.00,CLR,,0.00,WeatherDisplay:10.37,2013-09-11 05:13:00,
2013-09-11 01:14:00,80.7,73.6,29.99,South,171,4.6,4.6,79,0.00,CLR,,0.00,WeatherDisplay:10.37,2013-09-11 05:14:00,
2013-09-11 01:17:00,80.7,73.6,29.99,SSE,167,1.1,1.1,79,0.00,CLR,,0.00,WeatherDisplay:10.37,2013-09-11 05:17:00,
2013-09-11 01:18:00,80.7,73.6,29.99,SW,236,6.9,0.0,79,0.00,CLR,,0.00,WeatherDisplay:10.37,2013-09-11 05:18:00,
2013-09-11 01:19:00,80.7,73.6,29.99,SW,236,0.0,0.0,79,0.00,CLR,,0.00,WeatherDisplay:10.37,2013-09-11 05:19:00,
2013-09-11 01:22:00,80.7,73.6,30.00,SSW,198,0.0,0.0,79,0.00,CLR,,0.00,WeatherDisplay:10.37,2013-09-11 05:22:00,
2013-09-11 01:23:00,80.7,73.6,30.00,South,181,0.0,0.0,79,0.00,CLR,,0.00,WeatherDisplay:10.37,2013-09-11 05:23:00,
2013-09-11 01:24:00,80.7,73.6,30.00,South,179,0.0,0.0,79,0.00,CLR,,0.00,WeatherDisplay:10.37,2013-09-11 05:24:00,
2013-09-11 01:27:00,80.7,73.6,30.00,SW,229,0.0,0.0,79,0.00,CLR,,0.00,WeatherDisplay:10.37,2013-09-11 05:27:00,
2013-09-11 01:28:00,80.5,73.4,30.00,SW,227,0.0,0.0,79,0.00,CLR,,0.00,WeatherDisplay:10.37,2013-09-11 05:28:00,
2013-09-11 01:29:00,80.5,73.4,30.00,SW,227,0.0,0.0,79,0.00,CLR,,0.00,WeatherDisplay:10.37,2013-09-11 05:29:00,
2013-09-11 01:30:00,80.5,73.4,29.99,South,189,0.0,0.0,79,0.00,CLR,,0.00,WeatherDisplay:10.37,2013-09-11 05:30:00,
2013-09-11 01:32:00,80.5,73.8,30.00,WSW,239,0.0,0.0,80,0.00,CLR,,0.00,WeatherDisplay:10.37,2013-09-11 05:32:00,
2013-09-11 01:33:00,80.5,73.8,30.00,WSW,239,0.0,0.0,80,0.00,CLR,,0.00,WeatherDisplay:10.37,2013-09-11 05:33:00,
2013-09-11 01:34:00,80.5,73.8,30.00,SW,236,0.0,0.0,80,0.00,CLR,,0.00,WeatherDisplay:10.37,2013-09-11 05:34:00,
2013-09-11 01:35:00,80.5,73.8,30.00,South,188,0.0,0.0,80,0.00,CLR,,0.00,WeatherDisplay:10.37,2013-09-11 05:35:00,
2013-09-11 01:37:00,80.3,73.6,30.00,WSW,257,0.0,0.0,80,0.00,CLR,,0.00,WeatherDisplay:10.37,2013-09-11 05:37:00,
2013-09-11 01:38:00,80.3,73.6,29.99,SSW,208,0.0,0.0,80,0.00,CLR,,0.00,WeatherDisplay:10.37,2013-09-11 05:38:00,
2013-09-11 01:39:00,80.3,73.6,29.99,SSW,209,0.0,0.0,80,0.00,CLR,,0.00,WeatherDisplay:10.37,2013-09-11 05:39:00,
2013-09-11 01:41:00,80.3,73.6,29.99,South,178,1.1,0.0,80,0.00,CLR,,0.00,WeatherDisplay:10.37,2013-09-11 05:41:00,
2013-09-11 01:42:00,80.3,73.6,29.99,SSW,198,1.1,0.0,80,0.00,CLR,,0.00,WeatherDisplay:10.37,2013-09-11 05:42:00,
2013-09-11 01:43:00,80.3,73.6,29.99,SSW,198,0.0,0.0,80,0.00,CLR,,0.00,WeatherDisplay:10.37,2013-09-11 05:43:00,
2013-09-11 01:44:00,80.3,73.6,29.99,SSW,196,0.0,0.0,80,0.00,CLR,,0.00,WeatherDisplay:10.37,2013-09-11 05:44:00,
2013-09-11 01:46:00,80.3,73.6,29.99,SSW,198,0.0,0.0,80,0.00,CLR,,0.00,WeatherDisplay:10.37,2013-09-11 05:46:00,
2013-09-11 01:48:00,80.3,73.6,29.99,SSW,212,2.3,2.3,80,0.00,CLR,,0.00,WeatherDisplay:10.37,2013-09-11 05:48:00,
2013-09-11 01:50:00,80.3,73.6,29.99,SSE,151,0.0,0.0,80,0.00,CLR,,0.00,WeatherDisplay:10.37,2013-09-11 05:50:00,
2013-09-11 01:51:00,80.1,73.4,29.99,SSE,151,0.0,0.0,80,0.00,CLR,,0.00,WeatherDisplay:10.37,2013-09-11 05:51:00,
2013-09-11 01:54:00,80.1,73.4,29.99,SE,145,0.0,2.4,80,0.00,CLR,,0.00,WeatherDisplay:10.37,2013-09-11 05:54:00,
2013-09-11 01:55:00,80.1,73.4,29.99,SSW,202,0.0,0.0,80,0.00,CLR,,0.00,WeatherDisplay:10.37,2013-09-11 05:55:00,
2013-09-11 01:56:00,80.3,73.6,29.99,SSW,209,0.0,0.0,80,0.00,CLR,,0.00,WeatherDisplay:10.37,2013-09-11 05:56:00,
2013-09-11 01:59:00,80.3,73.2,29.99,SE,137,10.4,10.4,79,0.00,CLR,,0.00,WeatherDisplay:10.37,2013-09-11 05:59:00,
2013-09-11 02:00:00,80.3,73.2,29.99,SSE,158,3.5,0.0,79,0.00,CLR,,0.00,WeatherDisplay:10.37,2013-09-11 06:00:00,
2013-09-11 02:02:00,80.3,73.2,29.99,SSE,158,0.0,0.0,79,0.00,CLR,,0.00,WeatherDisplay:10.37,2013-09-11 06:02:00,
2013-09-11 02:04:00,80.3,73.2,29.99,West,270,4.6,4.6,79,0.00,CLR,,0.00,WeatherDisplay:10.37,2013-09-11 06:04:00,
2013-09-11 02:05:00,80.3,73.2,29.99,SW,217,0.0,0.0,79,0.00,CLR,,0.00,WeatherDisplay:10.37,2013-09-11 06:05:00,
2013-09-11 02:07:00,80.3,73.2,29.98,SSE,160,3.5,3.5,79,0.00,CLR,,0.00,WeatherDisplay:10.37,2013-09-11 06:07:00,
2013-09-11 02:08:00,80.1,73.0,29.99,South,191,4.6,4.6,79,0.00,CLR,,0.00,WeatherDisplay:10.37,2013-09-11 06:08:00,
2013-09-11 02:09:00,80.1,73.0,29.99,SSW,192,0.0,0.0,79,0.00,CLR,,0.00,WeatherDisplay:10.37,2013-09-11 06:09:00,
2013-09-11 02:11:00,80.1,73.0,29.98,SSE,162,0.0,0.0,79,0.00,CLR,,0.00,WeatherDisplay:10.37,2013-09-11 06:11:00,
2013-09-11 02:12:00,80.1,73.0,29.98,SSE,162,0.0,0.0,79,0.00,CLR,,0.00,WeatherDisplay:10.37,2013-09-11 06:12:00,
2013-09-11 02:13:00,80.1,73.0,29.98,SSE,162,0.0,0.0,79,0.00,CLR,,0.00,WeatherDisplay:10.37,2013-09-11 06:13:00,
2013-09-11 02:14:00,80.1,73.0,29.99,SSE,164,0.0,0.0,79,0.00,CLR,,0.00,WeatherDisplay:10.37,2013-09-11 06:14:00,
2013-09-11 02:16:00,79.9,72.8,29.99,SSE,164,0.0,0.0,79,0.00,CLR,,0.00,WeatherDisplay:10.37,2013-09-11 06:16:00,
2013-09-11 02:17:00,79.9,72.8,29.99,SSE,155,3.0,3.0,79,0.00,CLR,,0.00,WeatherDisplay:10.37,2013-09-11 06:17:00,
2013-09-11 02:18:00,79.9,73.2,29.98,SSW,192,3.5,3.5,80,0.00,CLR,,0.00,WeatherDisplay:10.37,2013-09-11 06:18:00,
2013-09-11 02:20:00,79.9,73.2,29.98,South,189,0.0,0.0,80,0.00,CLR,,0.00,WeatherDisplay:10.37,2013-09-11 06:20:00,
2013-09-11 02:21:00,79.9,73.2,29.99,South,176,0.0,0.0,80,0.00,CLR,,0.00,WeatherDisplay:10.37,2013-09-11 06:21:00,
2013-09-11 02:22:00,79.9,73.2,29.99,SSE,161,0.0,0.0,80,0.00,CLR,,0.00,WeatherDisplay:10.37,2013-09-11 06:22:00,
2013-09-11 02:23:00,79.9,73.2,29.99,West,267,0.0,0.0,80,0.00,CLR,,0.00,WeatherDisplay:10.37,2013-09-11 06:23:00,
2013-09-11 02:26:00,79.8,73.1,29.99,South,184,0.0,0.0,80,0.00,CLR,,0.00,WeatherDisplay:10.37,2013-09-11 06:26:00,
2013-09-11 02:27:00,79.8,73.1,29.99,South,191,0.0,0.0,80,0.00,CLR,,0.00,WeatherDisplay:10.37,2013-09-11 06:27:00,
2013-09-11 02:28:00,79.8,73.1,29.99,South,191,0.0,0.0,80,0.00,CLR,,0.00,WeatherDisplay:10.37,2013-09-11 06:28:00,
2013-09-11 02:31:00,79.8,73.1,29.99,South,191,0.0,0.0,80,0.00,CLR,,0.00,WeatherDisplay:10.37,2013-09-11 06:31:00,
2013-09-11 02:32:00,79.8,73.1,29.99,South,186,0.0,0.0,80,0.00,CLR,,0.00,WeatherDisplay:10.37,2013-09-11 06:32:00,
2013-09-11 02:33:00,79.8,73.1,29.98,South,186,0.0,0.0,80,0.00,CLR,,0.00,WeatherDisplay:10.37,2013-09-11 06:33:00,
2013-09-11 02:34:00,79.8,73.1,29.99,South,186,0.0,0.0,80,0.00,CLR,,0.00,WeatherDisplay:10.37,2013-09-11 06:34:00,
2013-09-11 02:36:00,79.6,72.9,29.98,SSW,198,0.0,0.0,80,0.00,CLR,,0.00,WeatherDisplay:10.37,2013-09-11 06:36:00,
2013-09-11 02:37:00,79.6,72.9,29.99,South,189,0.0,0.0,80,0.00,CLR,,0.00,WeatherDisplay:10.37,2013-09-11 06:37:00,
2013-09-11 02:39:00,79.6,72.9,29.99,West,265,5.8,5.8,80,0.00,CLR,,0.00,WeatherDisplay:10.37,2013-09-11 06:39:00,
2013-09-11 02:41:00,79.6,72.9,29.98,SE,144,0.0,0.0,80,0.00,CLR,,0.00,WeatherDisplay:10.37,2013-09-11 06:41:00,
2013-09-11 02:42:00,79.6,72.9,29.98,SSE,154,0.0,0.0,80,0.00,CLR,,0.00,WeatherDisplay:10.37,2013-09-11 06:42:00,
2013-09-11 02:43:00,79.6,72.9,29.98,SSE,152,4.6,4.6,80,0.00,CLR,,0.00,WeatherDisplay:10.37,2013-09-11 06:43:00,
2013-09-11 02:44:00,79.6,72.9,29.98,SSE,152,4.6,4.6,80,0.00,CLR,,0.00,WeatherDisplay:10.37,2013-09-11 06:44:00,
2013-09-11 02:46:00,79.6,72.5,29.98,SSE,151,0.0,0.8,79,0.00,CLR,,0.00,WeatherDisplay:10.37,2013-09-11 06:46:00,
2013-09-11 02:47:00,79.6,72.5,29.98,SSE,151,4.6,0.0,79,0.00,CLR,,0.00,WeatherDisplay:10.37,2013-09-11 06:47:00,
2013-09-11 02:49:00,79.8,72.7,29.98,SSE,154,0.0,0.0,79,0.00,CLR,,0.00,WeatherDisplay:10.37,2013-09-11 06:49:00,
2013-09-11 02:51:00,79.8,72.3,29.99,SSE,154,0.0,0.0,78,0.00,CLR,,0.00,WeatherDisplay:10.37,2013-09-11 06:51:00,
2013-09-11 02:52:00,79.8,72.3,29.99,SSE,165,0.0,0.0,78,0.00,CLR,,0.00,WeatherDisplay:10.37,2013-09-11 06:52:00,
2013-09-11 02:54:00,79.8,72.3,29.99,SSE,165,0.0,0.0,78,0.00,CLR,,0.00,WeatherDisplay:10.37,2013-09-11 06:54:00,
2013-09-11 02:56:00,79.8,72.7,29.99,SSE,162,1.1,1.1,79,0.00,CLR,,0.00,WeatherDisplay:10.37,2013-09-11 06:56:00,
2013-09-11 02:58:00,79.8,72.7,29.99,SE,133,3.0,3.0,79,0.00,CLR,,0.00,WeatherDisplay:10.37,2013-09-11 06:58:00,
2013-09-11 02:59:00,79.8,72.7,29.99,SSE,154,5.8,5.8,79,0.00,CLR,,0.00,WeatherDisplay:10.37,2013-09-11 06:59:00,
2013-09-11 03:01:00,79.6,72.5,29.99,SSE,155,6.9,6.9,79,0.00,CLR,,0.00,WeatherDisplay:10.37,2013-09-11 07:01:00,
2013-09-11 03:03:00,79.6,72.5,29.99,SSE,158,0.0,0.0,79,0.00,CLR,,0.00,WeatherDisplay:10.37,2013-09-11 07:03:00,
2013-09-11 03:04:00,79.6,72.5,29.99,SSE,158,0.0,0.0,79,0.00,CLR,,0.00,WeatherDisplay:10.37,2013-09-11 07:04:00,
2013-09-11 03:05:00,79.6,72.5,29.99,SSE,158,0.0,0.0,79,0.00,CLR,,0.00,WeatherDisplay:10.37,2013-09-11 07:05:00,
2013-09-11 03:06:00,79.6,72.5,29.99,SSE,158,0.0,0.0,79,0.00,CLR,,0.00,WeatherDisplay:10.37,2013-09-11 07:06:00,
2013-09-11 03:08:00,79.6,72.9,29.99,SSE,158,0.0,0.0,80,0.00,CLR,,0.00,WeatherDisplay:10.37,2013-09-11 07:08:00,
2013-09-11 03:09:00,79.6,72.9,29.99,SSE,158,0.0,0.0,80,0.00,CLR,,0.00,WeatherDisplay:10.37,2013-09-11 07:09:00,
2013-09-11 03:11:00,79.4,72.7,29.99,SSE,158,0.0,0.0,80,0.00,CLR,,0.00,WeatherDisplay:10.37,2013-09-11 07:11:00,
2013-09-11 03:12:00,79.4,72.7,29.99,SSE,164,0.0,0.0,80,0.00,CLR,,0.00,WeatherDisplay:10.37,2013-09-11 07:12:00,
2013-09-11 03:13:00,79.4,72.7,29.99,SSE,164,0.0,0.0,80,0.00,CLR,,0.00,WeatherDisplay:10.37,2013-09-11 07:13:00,
2013-09-11 03:14:00,79.4,72.7,29.99,SSE,167,0.0,0.0,80,0.00,CLR,,0.00,WeatherDisplay:10.37,2013-09-11 07:14:00,
2013-09-11 03:16:00,79.2,72.5,29.99,SSE,165,0.0,0.0,80,0.00,CLR,,0.00,WeatherDisplay:10.37,2013-09-11 07:16:00,
2013-09-11 03:18:00,79.2,72.5,29.99,SSE,165,0.0,0.0,80,0.00,CLR,,0.00,WeatherDisplay:10.37,2013-09-11 07:18:00,
2013-09-11 03:20:00,79.2,72.5,29.99,South,184,0.0,0.0,80,0.00,CLR,,0.00,WeatherDisplay:10.37,2013-09-11 07:20:00,
2013-09-11 03:21:00,79.2,72.5,29.99,South,184,0.0,0.0,80,0.00,CLR,,0.00,WeatherDisplay:10.37,2013-09-11 07:21:00,
2013-09-11 03:23:00,79.2,72.5,29.99,SE,124,0.0,1.0,80,0.00,CLR,,0.00,WeatherDisplay:10.37,2013-09-11 07:23:00,
2013-09-11 03:25:00,79.2,72.5,29.99,SE,124,0.0,0.0,80,0.00,CLR,,0.00,WeatherDisplay:10.37,2013-09-11 07:25:00,
2013-09-11 03:26:00,79.2,72.5,29.99,SE,124,1.1,0.0,80,0.00,CLR,,0.00,WeatherDisplay:10.37,2013-09-11 07:26:00,
2013-09-11 03:27:00,79.2,72.5,29.99,SE,124,0.0,0.0,80,0.00,CLR,,0.00,WeatherDisplay:10.37,2013-09-11 07:27:00,
2013-09-11 03:28:00,79.2,72.5,29.99,SE,124,0.0,0.0,80,0.00,CLR,,0.00,WeatherDisplay:10.37,2013-09-11 07:28:00,
2013-09-11 03:29:00,79.2,72.5,29.99,SE,124,0.0,0.0,80,0.00,CLR,,0.00,WeatherDisplay:10.37,2013-09-11 07:29:00,
2013-09-11 03:30:00,79.0,72.3,29.99,SE,124,1.1,0.0,80,0.00,CLR,,0.00,WeatherDisplay:10.37,2013-09-11 07:30:00,
2013-09-11 03:31:00,79.0,72.3,29.99,SE,124,0.0,0.0,80,0.00,CLR,,0.00,WeatherDisplay:10.37,2013-09-11 07:31:00,
2013-09-11 03:32:00,79.0,72.3,29.99,SE,126,0.0,0.0,80,0.00,CLR,,0.00,WeatherDisplay:10.37,2013-09-11 07:32:00,
2013-09-11 03:34:00,78.8,72.1,29.99,SSE,154,3.5,0.0,80,0.00,CLR,,0.00,WeatherDisplay:10.37,2013-09-11 07:34:00,
2013-09-11 03:36:00,78.8,72.5,29.99,SSE,154,0.0,0.0,81,0.00,CLR,,0.00,WeatherDisplay:10.37,2013-09-11 07:36:00,
2013-09-11 03:37:00,78.8,72.5,29.99,SSE,154,0.0,0.0,81,0.00,CLR,,0.00,WeatherDisplay:10.37,2013-09-11 07:37:00,
2013-09-11 03:38:00,78.8,72.5,29.99,SSE,154,1.1,1.1,81,0.00,CLR,,0.00,WeatherDisplay:10.37,2013-09-11 07:38:00,
2013-09-11 03:39:00,78.6,72.3,29.99,SSE,157,0.0,0.0,81,0.00,CLR,,0.00,WeatherDisplay:10.37,2013-09-11 07:39:00,
2013-09-11 03:41:00,78.6,72.3,29.99,SSE,157,0.0,0.0,81,0.00,CLR,,0.00,WeatherDisplay:10.37,2013-09-11 07:41:00,
2013-09-11 03:42:00,78.6,72.6,29.99,SSE,157,0.0,0.0,82,0.00,CLR,,0.00,WeatherDisplay:10.37,2013-09-11 07:42:00,
2013-09-11 03:44:00,78.6,72.6,29.99,SSE,157,0.0,0.0,82,0.00,CLR,,0.00,WeatherDisplay:10.37,2013-09-11 07:44:00,
2013-09-11 03:47:00,78.5,72.5,29.99,SSE,157,0.0,0.0,82,0.00,CLR,,0.00,WeatherDisplay:10.37,2013-09-11 07:47:00,
2013-09-11 03:49:00,78.5,72.5,29.99,SSE,157,0.0,0.0,82,0.00,CLR,,0.00,WeatherDisplay:10.37,2013-09-11 07:49:00,
2013-09-11 03:50:00,78.5,72.5,29.99,SSE,157,0.0,0.0,82,0.00,CLR,,0.00,WeatherDisplay:10.37,2013-09-11 07:50:00,
2013-09-11 03:51:00,78.3,72.7,29.99,SSE,157,0.0,0.0,83,0.00,CLR,,0.00,WeatherDisplay:10.37,2013-09-11 07:51:00,
2013-09-11 03:52:00,78.3,72.7,29.99,SSE,155,0.0,0.0,83,0.00,CLR,,0.00,WeatherDisplay:10.37,2013-09-11 07:52:00,
2013-09-11 03:54:00,78.1,72.5,29.99,SSE,155,0.0,0.0,83,0.00,CLR,,0.00,WeatherDisplay:10.37,2013-09-11 07:54:00,
2013-09-11 03:55:00,78.1,72.5,29.99,SSE,155,0.0,0.0,83,0.00,CLR,,0.00,WeatherDisplay:10.37,2013-09-11 07:55:00,
2013-09-11 03:56:00,78.1,72.5,29.99,SSE,155,1.1,0.0,83,0.00,CLR,,0.00,WeatherDisplay:10.37,2013-09-11 07:56:00,
2013-09-11 03:57:00,78.1,72.9,29.99,SSE,154,4.6,4.6,84,0.00,CLR,,0.00,WeatherDisplay:10.37,2013-09-11 07:57:00,
2013-09-11 03:59:00,78.1,72.9,29.99,SSE,154,0.0,0.0,84,0.00,CLR,,0.00,WeatherDisplay:10.37,2013-09-11 07:59:00,
2013-09-11 04:00:00,78.1,72.9,29.99,SSE,154,0.0,0.0,84,0.00,CLR,,0.00,WeatherDisplay:10.37,2013-09-11 08:00:00,
2013-09-11 04:01:00,78.1,72.5,29.99,SSE,154,0.0,0.0,83,0.00,CLR,,0.00,WeatherDisplay:10.37,2013-09-11 08:01:00,
2013-09-11 04:02:00,78.1,72.5,29.99,SSE,154,0.0,0.0,83,0.00,CLR,,0.00,WeatherDisplay:10.37,2013-09-11 08:02:00,
2013-09-11 04:05:00,78.1,72.5,29.99,SSE,154,0.0,0.0,83,0.00,CLR,,0.00,WeatherDisplay:10.37,2013-09-11 08:05:00,
2013-09-11 04:06:00,78.1,72.5,29.99,SSE,154,0.0,0.0,83,0.00,CLR,,0.00,WeatherDisplay:10.37,2013-09-11 08:06:00,
2013-09-11 04:07:00,78.1,72.5,29.99,SSE,154,0.0,0.0,83,0.00,CLR,,0.00,WeatherDisplay:10.37,2013-09-11 08:07:00,
2013-09-11 04:11:00,78.1,72.2,29.99,SSE,154,0.0,0.0,82,0.00,CLR,,0.00,WeatherDisplay:10.37,2013-09-11 08:11:00,
2013-09-11 04:12:00,78.1,72.2,30.00,SSE,154,0.0,0.0,82,0.00,CLR,,0.00,WeatherDisplay:10.37,2013-09-11 08:12:00,
2013-09-11 04:13:00,78.1,72.2,30.00,South,169,0.0,0.0,82,0.00,CLR,,0.00,WeatherDisplay:10.37,2013-09-11 08:13:00,
2013-09-11 04:16:00,78.3,72.3,29.99,South,169,0.0,0.0,82,0.00,CLR,,0.00,WeatherDisplay:10.37,2013-09-11 08:16:00,
2013-09-11 04:17:00,78.3,72.3,29.99,South,169,0.0,0.0,82,0.00,CLR,,0.00,WeatherDisplay:10.37,2013-09-11 08:17:00,
2013-09-11 04:18:00,78.3,72.3,29.99,South,169,0.0,0.0,82,0.00,CLR,,0.00,WeatherDisplay:10.37,2013-09-11 08:18:00,
2013-09-11 04:21:00,78.3,72.3,30.00,SSW,196,1.1,0.0,82,0.00,CLR,,0.00,WeatherDisplay:10.37,2013-09-11 08:21:00,
2013-09-11 04:22:00,78.3,72.3,30.00,South,182,1.1,0.0,82,0.00,CLR,,0.00,WeatherDisplay:10.37,2013-09-11 08:22:00,
2013-09-11 04:23:00,78.3,72.3,30.00,South,182,0.0,0.0,82,0.00,CLR,,0.00,WeatherDisplay:10.37,2013-09-11 08:23:00,
2013-09-11 04:26:00,78.1,72.2,30.00,SE,144,6.0,6.0,82,0.00,CLR,,0.00,WeatherDisplay:10.37,2013-09-11 08:26:00,
2013-09-11 04:27:00,78.1,72.2,30.00,SE,144,0.0,1.2,82,0.00,CLR,,0.00,WeatherDisplay:10.37,2013-09-11 08:27:00,
2013-09-11 04:28:00,78.1,72.5,30.00,SE,140,8.1,8.1,83,0.00,CLR,,0.00,WeatherDisplay:10.37,2013-09-11 08:28:00,
2013-09-11 04:29:00,78.1,72.5,29.99,South,191,6.9,6.9,83,0.00,CLR,,0.00,WeatherDisplay:10.37,2013-09-11 08:29:00,
2013-09-11 04:31:00,78.1,72.2,29.99,South,172,4.6,0.0,82,0.00,CLR,,0.00,WeatherDisplay:10.37,2013-09-11 08:31:00,
2013-09-11 04:32:00,78.1,72.2,29.99,South,172,0.0,0.0,82,0.00,CLR,,0.00,WeatherDisplay:10.37,2013-09-11 08:32:00,
2013-09-11 04:33:00,78.1,72.2,29.99,WSW,247,1.1,1.1,82,0.00,CLR,,0.00,WeatherDisplay:10.37,2013-09-11 08:33:00,
2013-09-11 04:35:00,78.1,72.5,29.99,SSW,203,0.0,0.0,83,0.00,CLR,,0.00,WeatherDisplay:10.37,2013-09-11 08:35:00,
2013-09-11 04:36:00,78.1,72.5,29.99,SSW,203,0.0,0.0,83,0.00,CLR,,0.00,WeatherDisplay:10.37,2013-09-11 08:36:00,
2013-09-11 04:37:00,78.1,72.5,29.99,SSW,203,0.0,0.0,83,0.00,CLR,,0.00,WeatherDisplay:10.37,2013-09-11 08:37:00,
2013-09-11 04:38:00,78.1,72.2,30.00,SSW,203,0.0,0.0,82,0.00,CLR,,0.00,WeatherDisplay:10.37,2013-09-11 08:38:00,
2013-09-11 04:41:00,78.1,72.2,30.00,WSW,237,0.0,0.0,82,0.00,CLR,,0.00,WeatherDisplay:10.37,2013-09-11 08:41:00,
2013-09-11 04:42:00,78.1,72.2,30.00,WSW,237,0.0,0.0,82,0.00,CLR,,0.00,WeatherDisplay:10.37,2013-09-11 08:42:00,
2013-09-11 04:43:00,78.1,72.2,30.00,SW,236,0.0,0.0,82,0.00,CLR,,0.00,WeatherDisplay:10.37,2013-09-11 08:43:00,
2013-09-11 04:44:00,78.1,72.2,30.00,WSW,237,0.0,0.0,82,0.00,CLR,,0.00,WeatherDisplay:10.37,2013-09-11 08:44:00,
2013-09-11 04:47:00,78.1,72.2,29.99,South,184,0.0,0.0,82,0.00,CLR,,0.00,WeatherDisplay:10.37,2013-09-11 08:47:00,
2013-09-11 04:48:00,78.1,72.2,30.00,South,184,0.0,0.0,82,0.00,CLR,,0.00,WeatherDisplay:10.37,2013-09-11 08:48:00,
2013-09-11 04:49:00,78.1,72.5,29.99,South,184,0.0,0.0,83,0.00,CLR,,0.00,WeatherDisplay:10.37,2013-09-11 08:49:00,
2013-09-11 04:52:00,78.1,72.2,29.99,SSE,152,1.1,1.1,82,0.00,CLR,,0.00,WeatherDisplay:10.37,2013-09-11 08:52:00,
2013-09-11 04:53:00,78.1,72.2,29.99,South,171,6.0,6.0,82,0.00,CLR,,0.00,WeatherDisplay:10.37,2013-09-11 08:53:00,
2013-09-11 04:54:00,78.1,72.2,29.99,SSE,152,6.9,6.9,82,0.00,CLR,,0.00,WeatherDisplay:10.37,2013-09-11 08:54:00,
2013-09-11 04:57:00,78.3,72.0,29.99,SSE,162,0.0,0.0,81,0.00,CLR,,0.00,WeatherDisplay:10.37,2013-09-11 08:57:00,
2013-09-11 04:58:00,78.3,72.0,29.99,SSE,147,8.1,8.1,81,0.00,CLR,,0.00,WeatherDisplay:10.37,2013-09-11 08:58:00,
2013-09-11 04:59:00,78.3,71.6,29.99,WSW,237,5.8,0.0,80,0.00,CLR,,0.00,WeatherDisplay:10.37,2013-09-11 08:59:00,
2013-09-11 05:02:00,78.5,71.8,29.99,SSW,210,0.0,0.0,80,0.00,CLR,,0.00,WeatherDisplay:10.37,2013-09-11 09:02:00,
2013-09-11 05:03:00,78.5,71.8,29.99,SSW,200,0.0,0.0,80,0.00,CLR,,0.00,WeatherDisplay:10.37,2013-09-11 09:03:00,
2013-09-11 05:04:00,78.5,71.8,29.99,South,191,0.0,0.0,80,0.00,CLR,,0.00,WeatherDisplay:10.37,2013-09-11 09:04:00,
2013-09-11 05:07:00,78.5,71.8,29.99,South,182,1.1,0.0,80,0.00,CLR,,0.00,WeatherDisplay:10.37,2013-09-11 09:07:00,
2013-09-11 05:08:00,78.6,71.9,29.99,South,181,0.0,0.0,80,0.00,CLR,,0.00,WeatherDisplay:10.37,2013-09-11 09:08:00,
2013-09-11 05:09:00,78.6,71.9,29.99,South,181,1.1,0.0,80,0.00,CLR,,0.00,WeatherDisplay:10.37,2013-09-11 09:09:00,
2013-09-11 05:12:00,78.6,71.9,29.99,SSE,161,2.3,0.0,80,0.00,CLR,,0.00,WeatherDisplay:10.37,2013-09-11 09:12:00,
2013-09-11 05:14:00,78.6,71.9,29.99,SE,145,0.0,0.0,80,0.00,CLR,,0.00,WeatherDisplay:10.37,2013-09-11 09:14:00,
2013-09-11 05:15:00,78.5,71.8,29.99,SE,144,0.0,0.0,80,0.00,CLR,,0.00,WeatherDisplay:10.37,2013-09-11 09:15:00,
2013-09-11 05:18:00,78.5,71.8,29.99,South,185,0.0,0.0,80,0.00,CLR,,0.00,WeatherDisplay:10.37,2013-09-11 09:18:00,
2013-09-11 05:19:00,78.5,71.8,29.99,South,185,0.0,0.0,80,0.00,CLR,,0.00,WeatherDisplay:10.37,2013-09-11 09:19:00,
2013-09-11 05:20:00,78.5,71.8,29.99,SSW,200,3.5,3.5,80,0.00,CLR,,0.00,WeatherDisplay:10.37,2013-09-11 09:20:00,
2013-09-11 05:23:00,78.5,71.8,29.99,SSW,198,0.0,0.0,80,0.00,CLR,,0.00,WeatherDisplay:10.37,2013-09-11 09:23:00,
2013-09-11 05:24:00,78.5,71.8,29.99,SSW,198,0.0,0.0,80,0.00,CLR,,0.00,WeatherDisplay:10.37,2013-09-11 09:24:00,
2013-09-11 05:25:00,78.5,71.8,29.99,SSW,198,0.0,0.0,80,0.00,CLR,,0.00,WeatherDisplay:10.37,2013-09-11 09:25:00,
2013-09-11 05:26:00,78.5,71.8,29.99,South,189,1.1,0.0,80,0.00,CLR,,0.00,WeatherDisplay:10.37,2013-09-11 09:26:00,
2013-09-11 05:28:00,78.5,71.8,30.00,South,178,0.0,0.0,80,0.00,CLR,,0.00,WeatherDisplay:10.37,2013-09-11 09:28:00,
2013-09-11 05:29:00,78.5,71.8,29.99,South,178,0.0,0.0,80,0.00,CLR,,0.00,WeatherDisplay:10.37,2013-09-11 09:29:00,
2013-09-11 05:30:00,78.5,71.8,30.00,South,176,0.0,0.0,80,0.00,CLR,,0.00,WeatherDisplay:10.37,2013-09-11 09:30:00,
2013-09-11 05:31:00,78.5,71.8,30.00,South,175,0.0,0.0,80,0.00,CLR,,0.00,WeatherDisplay:10.37,2013-09-11 09:31:00,
2013-09-11 05:33:00,78.5,71.8,30.00,South,175,0.0,0.0,80,0.00,CLR,,0.00,WeatherDisplay:10.37,2013-09-11 09:33:00,
2013-09-11 05:34:00,78.3,71.6,30.00,South,175,0.0,0.0,80,0.00,CLR,,0.00,WeatherDisplay:10.37,2013-09-11 09:34:00,
2013-09-11 05:35:00,78.3,71.6,30.00,South,175,0.0,0.0,80,0.00,CLR,,0.00,WeatherDisplay:10.37,2013-09-11 09:35:00,
2013-09-11 05:36:00,78.3,71.2,30.00,South,176,0.0,0.0,79,0.00,CLR,,0.00,WeatherDisplay:10.37,2013-09-11 09:36:00,
2013-09-11 05:37:00,78.3,71.2,30.00,South,176,0.0,0.0,79,0.00,CLR,,0.00,WeatherDisplay:10.37,2013-09-11 09:37:00,
2013-09-11 05:38:00,78.3,71.6,30.00,South,176,0.0,0.0,80,0.00,CLR,,0.00,WeatherDisplay:10.37,2013-09-11 09:38:00,
2013-09-11 05:39:00,78.3,71.6,30.00,South,176,0.0,0.0,80,0.00,CLR,,0.00,WeatherDisplay:10.37,2013-09-11 09:39:00,
2013-09-11 05:40:00,78.3,71.6,30.00,South,176,0.0,0.0,80,0.00,CLR,,0.00,WeatherDisplay:10.37,2013-09-11 09:40:00,
2013-09-11 05:42:00,78.3,71.6,30.00,South,176,0.0,0.0,80,0.00,CLR,,0.00,WeatherDisplay:10.37,2013-09-11 09:42:00,
2013-09-11 05:43:00,78.1,71.4,30.00,SSE,168,1.1,0.0,80,0.00,CLR,,0.00,WeatherDisplay:10.37,2013-09-11 09:43:00,
2013-09-11 05:44:00,78.1,71.4,30.00,SSE,168,0.0,0.0,80,0.00,CLR,,0.00,WeatherDisplay:10.37,2013-09-11 09:44:00,
2013-09-11 05:45:00,78.1,71.4,30.00,SSE,168,0.0,0.0,80,0.00,CLR,,0.00,WeatherDisplay:10.37,2013-09-11 09:45:00,
2013-09-11 05:47:00,78.1,71.4,30.00,SSE,168,1.1,0.0,80,0.00,CLR,,0.00,WeatherDisplay:10.37,2013-09-11 09:47:00,
2013-09-11 05:48:00,78.1,71.4,30.00,SSE,168,0.0,0.0,80,0.00,CLR,,0.00,WeatherDisplay:10.37,2013-09-11 09:48:00,
2013-09-11 05:49:00,78.1,71.4,30.00,South,172,0.0,0.0,80,0.00,CLR,,0.00,WeatherDisplay:10.37,2013-09-11 09:49:00,
2013-09-11 05:51:00,78.1,71.4,30.00,South,172,0.0,0.0,80,0.00,CLR,,0.00,WeatherDisplay:10.37,2013-09-11 09:51:00,
2013-09-11 05:52:00,78.1,71.4,30.00,South,169,0.0,0.0,80,0.00,CLR,,0.00,WeatherDisplay:10.37,2013-09-11 09:52:00,
2013-09-11 05:53:00,78.1,71.4,30.00,South,169,1.1,0.0,80,0.00,CLR,,0.00,WeatherDisplay:10.37,2013-09-11 09:53:00,
2013-09-11 05:54:00,77.9,71.2,30.00,SSE,167,2.3,2.3,80,0.00,CLR,,0.00,WeatherDisplay:10.37,2013-09-11 09:54:00,
2013-09-11 05:56:00,77.9,71.2,30.00,SSE,167,0.0,0.0,80,0.00,CLR,,0.00,WeatherDisplay:10.37,2013-09-11 09:56:00,
2013-09-11 05:58:00,77.9,71.2,30.00,SSE,167,0.0,0.0,80,0.00,CLR,,0.00,WeatherDisplay:10.37,2013-09-11 09:58:00,
2013-09-11 05:59:00,77.9,71.2,30.00,SSE,167,2.0,2.0,80,0.00,CLR,,0.00,WeatherDisplay:10.37,2013-09-11 09:59:00,
2013-09-11 06:02:00,77.9,71.2,30.00,SSE,165,0.0,0.0,80,0.00,CLR,,0.00,WeatherDisplay:10.37,2013-09-11 10:02:00,
2013-09-11 06:03:00,77.9,71.2,30.00,SSE,165,1.1,0.0,80,0.00,CLR,,0.00,WeatherDisplay:10.37,2013-09-11 10:03:00,
2013-09-11 06:04:00,77.7,71.0,30.00,SSE,164,1.1,1.1,80,0.00,CLR,,0.00,WeatherDisplay:10.37,2013-09-11 10:04:00,
2013-09-11 06:08:00,77.7,71.0,30.00,SE,145,1.0,0.0,80,0.00,CLR,,0.00,WeatherDisplay:10.37,2013-09-11 10:08:00,
2013-09-11 06:09:00,77.7,71.0,30.00,SE,128,5.8,5.8,80,0.00,CLR,,0.00,WeatherDisplay:10.37,2013-09-11 10:09:00,
2013-09-11 06:13:00,77.7,71.0,30.00,SSE,154,0.0,0.0,80,0.00,CLR,,0.00,WeatherDisplay:10.37,2013-09-11 10:13:00,
2013-09-11 06:14:00,77.7,71.0,30.00,South,172,0.0,0.0,80,0.00,CLR,,0.00,WeatherDisplay:10.37,2013-09-11 10:14:00,
2013-09-11 06:16:00,77.6,71.3,30.00,South,171,1.1,0.0,81,0.00,CLR,,0.00,WeatherDisplay:10.37,2013-09-11 10:16:00,
2013-09-11 06:18:00,77.6,71.3,30.00,South,171,0.0,0.0,81,0.00,CLR,,0.00,WeatherDisplay:10.37,2013-09-11 10:18:00,
2013-09-11 06:19:00,77.6,71.3,30.00,SSE,167,3.5,3.5,81,0.00,CLR,,0.00,WeatherDisplay:10.37,2013-09-11 10:19:00,
2013-09-11 06:20:00,77.4,71.1,30.00,SSE,165,4.6,4.6,81,0.00,CLR,,0.00,WeatherDisplay:10.37,2013-09-11 10:20:00,
2013-09-11 06:21:00,77.4,70.7,30.00,SSE,164,0.0,0.0,80,0.00,CLR,,0.00,WeatherDisplay:10.37,2013-09-11 10:21:00,
2013-09-11 06:23:00,77.6,70.9,30.00,SSE,164,0.0,0.0,80,0.00,CLR,,0.00,WeatherDisplay:10.37,2013-09-11 10:23:00,
2013-09-11 06:24:00,77.6,70.9,30.00,SSE,164,0.0,0.0,80,0.00,CLR,,0.00,WeatherDisplay:10.37,2013-09-11 10:24:00,
2013-09-11 06:26:00,77.4,70.7,30.00,SSE,164,0.0,0.0,80,0.00,CLR,,0.00,WeatherDisplay:10.37,2013-09-11 10:26:00,
2013-09-11 06:28:00,77.4,70.7,30.00,SSE,164,0.0,0.0,80,0.00,CLR,,0.00,WeatherDisplay:10.37,2013-09-11 10:28:00,
2013-09-11 06:29:00,77.4,71.1,30.00,SSE,164,0.0,0.0,81,0.00,CLR,,0.00,WeatherDisplay:10.37,2013-09-11 10:29:00,
2013-09-11 06:32:00,77.4,71.1,30.00,SSE,157,0.0,0.0,81,0.00,CLR,,0.00,WeatherDisplay:10.37,2013-09-11 10:32:00,
2013-09-11 06:34:00,77.4,71.1,30.00,SSE,157,0.0,0.0,81,0.00,CLR,,0.00,WeatherDisplay:10.37,2013-09-11 10:34:00,
2013-09-11 06:35:00,77.4,71.1,30.00,SSE,157,0.0,0.0,81,0.00,CLR,,0.00,WeatherDisplay:10.37,2013-09-11 10:35:00,
2013-09-11 06:37:00,77.2,70.9,30.00,SE,145,0.0,0.0,81,0.00,CLR,,0.00,WeatherDisplay:10.37,2013-09-11 10:37:00,
2013-09-11 06:40:00,77.2,70.9,30.00,SSE,168,0.0,0.0,81,0.00,CLR,,0.00,WeatherDisplay:10.37,2013-09-11 10:40:00,
2013-09-11 06:42:00,77.2,70.5,30.00,South,186,0.0,0.0,80,0.00,CLR,,0.00,WeatherDisplay:10.37,2013-09-11 10:42:00,
2013-09-11 06:45:00,77.2,70.5,30.00,South,185,1.1,1.1,80,0.00,CLR,,0.00,WeatherDisplay:10.37,2013-09-11 10:45:00,
2013-09-11 06:46:00,77.2,70.5,30.00,South,171,1.1,0.0,80,0.00,CLR,,0.00,WeatherDisplay:10.37,2013-09-11 10:46:00,
2013-09-11 06:47:00,77.2,70.5,30.00,SE,145,0.0,0.0,80,0.00,CLR,,0.00,WeatherDisplay:10.37,2013-09-11 10:47:00,
2013-09-11 06:50:00,77.2,70.5,30.00,SSE,147,0.0,0.0,80,0.00,CLR,,0.00,WeatherDisplay:10.37,2013-09-11 10:50:00,
2013-09-11 06:51:00,77.2,70.9,30.00,SSE,147,1.1,0.0,81,0.00,CLR,,0.00,WeatherDisplay:10.37,2013-09-11 10:51:00,
2013-09-11 06:53:00,77.0,70.7,30.00,SSE,152,0.0,0.0,81,0.00,CLR,,0.00,WeatherDisplay:10.37,2013-09-11 10:53:00,
2013-09-11 06:55:00,77.0,70.7,30.00,SSE,155,0.0,0.0,81,0.00,CLR,,0.00,WeatherDisplay:10.37,2013-09-11 10:55:00,
2013-09-11 06:56:00,77.0,70.7,30.00,SSE,158,0.0,0.0,81,0.00,CLR,,0.00,WeatherDisplay:10.37,2013-09-11 10:56:00,
2013-09-11 06:57:00,77.0,70.7,30.00,SSE,157,7.0,7.0,81,0.00,CLR,,0.00,WeatherDisplay:10.37,2013-09-11 10:57:00,
2013-09-11 06:59:00,77.0,70.7,30.00,SSE,150,6.9,6.9,81,0.00,CLR,,0.00,WeatherDisplay:10.37,2013-09-11 10:59:00,
2013-09-11 07:00:00,77.0,70.7,30.00,SSE,148,0.0,0.0,81,0.00,CLR,,0.00,WeatherDisplay:10.37,2013-09-11 11:00:00,
2013-09-11 07:02:00,77.0,70.7,30.00,SSE,152,0.0,0.0,81,0.00,CLR,,0.00,WeatherDisplay:10.37,2013-09-11 11:02:00,
2013-09-11 07:03:00,77.0,70.7,30.00,SSE,152,0.0,0.0,81,0.00,CLR,,0.00,WeatherDisplay:10.37,2013-09-11 11:03:00,
2013-09-11 07:04:00,77.0,70.7,30.00,SSE,152,0.0,0.1,81,0.00,CLR,,0.00,WeatherDisplay:10.37,2013-09-11 11:04:00,
2013-09-11 07:05:00,77.0,70.7,30.00,SSE,152,1.1,0.0,81,0.00,CLR,,0.00,WeatherDisplay:10.37,2013-09-11 11:05:00,
2013-09-11 07:06:00,76.8,70.5,30.01,WSW,244,0.0,0.0,81,0.00,CLR,,0.00,WeatherDisplay:10.37,2013-09-11 11:06:00,
2013-09-11 07:07:00,76.8,70.5,30.00,WSW,244,0.0,0.0,81,0.00,CLR,,0.00,WeatherDisplay:10.37,2013-09-11 11:07:00,
2013-09-11 07:09:00,77.0,70.4,30.00,SSW,196,1.1,1.1,80,0.00,CLR,,0.00,WeatherDisplay:10.37,2013-09-11 11:09:00,
2013-09-11 07:10:00,77.0,70.4,30.00,South,185,1.1,0.0,80,0.00,CLR,,0.00,WeatherDisplay:10.37,2013-09-11 11:10:00,
2013-09-11 07:11:00,77.0,70.4,30.01,South,185,0.0,0.0,80,0.00,CLR,,0.00,WeatherDisplay:10.37,2013-09-11 11:11:00,
2013-09-11 07:13:00,77.0,70.4,30.01,SSW,208,0.0,0.0,80,0.00,CLR,,0.00,WeatherDisplay:10.37,2013-09-11 11:13:00,
2013-09-11 07:14:00,77.0,70.4,30.01,SSW,208,0.0,0.0,80,0.00,CLR,,0.00,WeatherDisplay:10.37,2013-09-11 11:14:00,
2013-09-11 07:15:00,77.0,70.4,30.01,SSW,208,0.0,0.0,80,0.00,CLR,,0.00,WeatherDisplay:10.37,2013-09-11 11:15:00,
2013-09-11 07:17:00,77.0,70.4,30.01,SSW,208,0.0,0.0,80,0.00,CLR,,0.00,WeatherDisplay:10.37,2013-09-11 11:17:00,
2013-09-11 07:18:00,77.0,70.4,30.01,SSW,195,1.1,0.0,80,0.00,CLR,,0.00,WeatherDisplay:10.37,2013-09-11 11:18:00,
2013-09-11 07:19:00,77.0,70.4,30.01,SSW,195,0.0,0.0,80,0.00,CLR,,0.00,WeatherDisplay:10.37,2013-09-11 11:19:00,
2013-09-11 07:20:00,77.0,70.4,30.01,SSW,193,0.0,0.0,80,0.00,CLR,,0.00,WeatherDisplay:10.37,2013-09-11 11:20:00,
2013-09-11 07:21:00,77.0,70.4,30.01,SSW,193,0.0,0.0,80,0.00,CLR,,0.00,WeatherDisplay:10.37,2013-09-11 11:21:00,
2013-09-11 07:22:00,77.0,70.4,30.01,SSW,193,0.0,0.0,80,0.00,CLR,,0.00,WeatherDisplay:10.37,2013-09-11 11:22:00,
2013-09-11 07:24:00,77.0,70.4,30.01,SSW,193,0.0,0.0,80,0.00,CLR,,0.00,WeatherDisplay:10.37,2013-09-11 11:24:00,
2013-09-11 07:26:00,77.0,70.4,30.01,SSW,193,0.0,0.0,80,0.00,CLR,,0.00,WeatherDisplay:10.37,2013-09-11 11:26:00,
2013-09-11 07:27:00,77.0,70.4,30.01,SSW,193,0.0,0.0,80,0.00,CLR,,0.00,WeatherDisplay:10.37,2013-09-11 11:27:00,
2013-09-11 07:28:00,77.0,70.4,30.01,SSW,193,0.0,0.0,80,0.00,CLR,,0.00,WeatherDisplay:10.37,2013-09-11 11:28:00,
2013-09-11 07:29:00,77.0,70.4,30.01,SSW,193,0.0,0.0,80,0.00,CLR,,0.00,WeatherDisplay:10.37,2013-09-11 11:29:00,
2013-09-11 07:31:00,77.0,70.4,30.01,SSW,193,0.0,0.0,80,0.00,CLR,,0.00,WeatherDisplay:10.37,2013-09-11 11:31:00,
2013-09-11 07:32:00,77.0,70.4,30.01,SSW,193,0.0,0.0,80,0.00,CLR,,0.00,WeatherDisplay:10.37,2013-09-11 11:32:00,
2013-09-11 07:33:00,77.0,70.4,30.01,SSW,193,0.0,0.0,80,0.00,CLR,,0.00,WeatherDisplay:10.37,2013-09-11 11:33:00,
2013-09-11 07:36:00,77.2,70.5,30.01,SSW,193,0.0,0.0,80,0.00,CLR,,0.00,WeatherDisplay:10.37,2013-09-11 11:36:00,
2013-09-11 07:37:00,77.2,70.5,30.01,SSW,193,0.0,0.0,80,0.00,CLR,,0.00,WeatherDisplay:10.37,2013-09-11 11:37:00,
2013-09-11 07:38:00,77.2,70.5,30.01,SSW,193,0.0,0.0,80,0.00,CLR,,0.00,WeatherDisplay:10.37,2013-09-11 11:38:00,
2013-09-11 07:41:00,77.2,70.5,30.01,SSW,193,0.0,0.0,80,0.00,CLR,,0.00,WeatherDisplay:10.37,2013-09-11 11:41:00,
2013-09-11 07:42:00,77.2,70.5,30.01,SSW,193,0.0,0.0,80,0.00,CLR,,0.00,WeatherDisplay:10.37,2013-09-11 11:42:00,
2013-09-11 07:43:00,77.2,70.5,30.01,SSW,193,0.0,0.0,80,0.00,CLR,,0.00,WeatherDisplay:10.37,2013-09-11 11:43:00,
2013-09-11 07:44:00,77.2,70.5,30.01,SSW,195,1.1,0.0,80,0.00,CLR,,0.00,WeatherDisplay:10.37,2013-09-11 11:44:00,
2013-09-11 07:46:00,77.2,70.5,30.01,SE,145,0.0,0.0,80,0.00,CLR,,0.00,WeatherDisplay:10.37,2013-09-11 11:46:00,
2013-09-11 07:47:00,77.2,70.5,30.01,SE,145,0.0,0.0,80,0.00,CLR,,0.00,WeatherDisplay:10.37,2013-09-11 11:47:00,
2013-09-11 07:48:00,77.4,70.7,30.01,SE,145,2.0,2.0,80,0.00,CLR,,0.00,WeatherDisplay:10.37,2013-09-11 11:48:00,
2013-09-11 07:50:00,77.4,70.7,30.01,South,181,4.6,4.6,80,0.00,CLR,,0.00,WeatherDisplay:10.37,2013-09-11 11:50:00,
2013-09-11 07:51:00,77.4,70.7,30.01,South,179,0.0,0.1,80,0.00,CLR,,0.00,WeatherDisplay:10.37,2013-09-11 11:51:00,
2013-09-11 07:52:00,77.4,70.7,30.01,South,181,1.1,0.0,80,0.00,CLR,,0.00,WeatherDisplay:10.37,2013-09-11 11:52:00,
2013-09-11 07:53:00,77.4,70.7,30.01,South,181,0.0,0.0,80,0.00,CLR,,0.00,WeatherDisplay:10.37,2013-09-11 11:53:00,
2013-09-11 07:54:00,77.4,70.7,30.01,South,181,0.0,0.0,80,0.00,CLR,,0.00,WeatherDisplay:10.37,2013-09-11 11:54:00,
2013-09-11 07:56:00,77.4,70.7,30.01,South,181,0.0,0.0,80,0.00,CLR,,0.00,WeatherDisplay:10.37,2013-09-11 11:56:00,
2013-09-11 07:57:00,77.4,70.7,30.01,SSE,154,4.6,4.6,80,0.00,CLR,,0.00,WeatherDisplay:10.37,2013-09-11 11:57:00,
2013-09-11 07:58:00,77.4,70.7,30.01,SSE,154,4.6,0.0,80,0.00,CLR,,0.00,WeatherDisplay:10.37,2013-09-11 11:58:00,
2013-09-11 07:59:00,77.4,70.7,30.01,SSE,154,2.0,2.0,80,0.00,CLR,,0.00,WeatherDisplay:10.37,2013-09-11 11:59:00,
2013-09-11 08:01:00,77.4,70.7,30.01,SSE,154,0.0,0.0,80,0.00,CLR,,0.00,WeatherDisplay:10.37,2013-09-11 12:01:00,
2013-09-11 08:02:00,77.4,70.7,30.01,SE,145,0.0,0.0,80,0.00,CLR,,0.00,WeatherDisplay:10.37,2013-09-11 12:02:00,
2013-09-11 08:04:00,77.4,70.7,30.01,SSE,150,5.0,5.0,80,0.00,CLR,,0.00,WeatherDisplay:10.37,2013-09-11 12:04:00,
2013-09-11 08:05:00,77.4,70.7,30.01,SSE,150,0.0,0.8,80,0.00,CLR,,0.00,WeatherDisplay:10.37,2013-09-11 12:05:00,
2013-09-11 08:06:00,77.4,70.7,30.02,SSE,152,0.0,0.0,80,0.00,CLR,,0.00,WeatherDisplay:10.37,2013-09-11 12:06:00,
2013-09-11 08:07:00,77.4,70.7,30.02,SSE,152,0.0,0.0,80,0.00,CLR,,0.00,WeatherDisplay:10.37,2013-09-11 12:07:00,
2013-09-11 08:10:00,77.6,70.9,30.01,SSE,148,10.4,10.4,80,0.00,CLR,,0.00,WeatherDisplay:10.37,2013-09-11 12:10:00,
2013-09-11 08:11:00,77.6,70.9,30.01,South,181,0.0,0.0,80,0.00,CLR,,0.00,WeatherDisplay:10.37,2013-09-11 12:11:00,
2013-09-11 08:13:00,77.6,70.9,30.01,South,181,0.0,0.0,80,0.00,CLR,,0.00,WeatherDisplay:10.37,2013-09-11 12:13:00,
2013-09-11 08:15:00,77.6,70.9,30.01,South,169,1.1,1.1,80,0.00,CLR,,0.00,WeatherDisplay:10.37,2013-09-11 12:15:00,
2013-09-11 08:16:00,77.6,70.9,30.01,SSE,151,6.9,6.9,80,0.00,CLR,,0.00,WeatherDisplay:10.37,2013-09-11 12:16:00,
2013-09-11 08:18:00,77.7,71.0,30.01,SSE,152,6.9,6.9,80,0.00,CLR,,0.00,WeatherDisplay:10.37,2013-09-11 12:18:00,
2013-09-11 08:20:00,77.7,71.0,30.01,SSE,155,4.0,4.0,80,0.00,CLR,,0.00,WeatherDisplay:10.37,2013-09-11 12:20:00,
2013-09-11 08:21:00,77.7,71.0,30.01,SSE,148,4.6,4.6,80,0.00,CLR,,0.00,WeatherDisplay:10.37,2013-09-11 12:21:00,
2013-09-11 08:22:00,77.7,71.0,30.01,SSE,148,6.0,6.0,80,0.00,CLR,,0.00,WeatherDisplay:10.37,2013-09-11 12:22:00,
2013-09-11 08:23:00,77.7,71.0,30.01,SE,138,8.1,8.1,80,0.00,CLR,,0.00,WeatherDisplay:10.37,2013-09-11 12:23:00,
2013-09-11 08:25:00,77.9,71.2,30.01,West,260,0.0,0.0,80,0.00,CLR,,0.00,WeatherDisplay:10.37,2013-09-11 12:25:00,
2013-09-11 08:26:00,77.9,71.2,30.01,WSW,258,0.0,0.0,80,0.00,CLR,,0.00,WeatherDisplay:10.37,2013-09-11 12:26:00,
2013-09-11 08:27:00,77.9,71.2,30.02,SSW,193,0.0,0.0,80,0.00,CLR,,0.00,WeatherDisplay:10.37,2013-09-11 12:27:00,
2013-09-11 08:28:00,77.9,71.2,30.02,SSW,193,0.0,0.0,80,0.00,CLR,,0.00,WeatherDisplay:10.37,2013-09-11 12:28:00,
2013-09-11 08:31:00,78.1,71.4,30.02,SSW,193,0.0,0.0,80,0.00,CLR,,0.00,WeatherDisplay:10.37,2013-09-11 12:31:00,
2013-09-11 08:32:00,78.1,71.4,30.01,SSW,193,0.0,0.0,80,0.00,CLR,,0.00,WeatherDisplay:10.37,2013-09-11 12:32:00,
2013-09-11 08:33:00,78.1,71.4,30.01,SSE,161,6.9,6.9,80,0.00,CLR,,0.00,WeatherDisplay:10.37,2013-09-11 12:33:00,
2013-09-11 08:36:00,78.3,71.6,30.02,SSE,164,0.0,0.0,80,0.00,CLR,,0.00,WeatherDisplay:10.37,2013-09-11 12:36:00,
2013-09-11 08:37:00,78.3,71.6,30.01,SSE,164,0.0,0.0,80,0.00,CLR,,0.00,WeatherDisplay:10.37,2013-09-11 12:37:00,
2013-09-11 08:38:00,78.3,71.6,30.01,SSE,164,0.0,0.0,80,0.00,CLR,,0.00,WeatherDisplay:10.37,2013-09-11 12:38:00,
2013-09-11 08:39:00,78.5,71.8,30.01,SSE,164,0.0,0.0,80,0.00,CLR,,0.00,WeatherDisplay:10.37,2013-09-11 12:39:00,
2013-09-11 08:42:00,78.5,71.4,30.01,SE,138,0.0,0.0,79,0.00,CLR,,0.00,WeatherDisplay:10.37,2013-09-11 12:42:00,
2013-09-11 08:44:00,78.5,71.4,30.01,South,181,0.0,0.0,79,0.00,CLR,,0.00,WeatherDisplay:10.37,2013-09-11 12:44:00,
2013-09-11 08:45:00,78.5,71.4,30.01,South,175,0.0,0.1,79,0.00,CLR,,0.00,WeatherDisplay:10.37,2013-09-11 12:45:00,
2013-09-11 08:47:00,78.5,71.8,30.01,South,175,0.0,0.0,80,0.00,CLR,,0.00,WeatherDisplay:10.37,2013-09-11 12:47:00,
2013-09-11 08:48:00,78.6,71.9,30.01,SE,145,8.1,8.1,80,0.00,CLR,,0.00,WeatherDisplay:10.37,2013-09-11 12:48:00,
2013-09-11 08:49:00,78.6,71.9,30.01,SSE,160,8.1,8.1,80,0.00,CLR,,0.00,WeatherDisplay:10.37,2013-09-11 12:49:00,
2013-09-11 08:50:00,78.6,71.5,30.01,SSE,154,4.6,0.0,79,0.00,CLR,,0.00,WeatherDisplay:10.37,2013-09-11 12:50:00,
2013-09-11 08:52:00,78.6,71.5,30.01,SSE,154,0.0,0.0,79,0.00,CLR,,0.00,WeatherDisplay:10.37,2013-09-11 12:52:00,
2013-09-11 08:53:00,78.6,71.5,30.01,SSE,154,0.0,0.0,79,0.00,CLR,,0.00,WeatherDisplay:10.37,2013-09-11 12:53:00,
2013-09-11 08:54:00,78.6,71.9,30.01,SSE,154,0.0,0.0,80,0.00,CLR,,0.00,WeatherDisplay:10.37,2013-09-11 12:54:00,
2013-09-11 08:55:00,78.6,71.9,30.01,SSE,154,0.0,0.0,80,0.00,CLR,,0.00,WeatherDisplay:10.37,2013-09-11 12:55:00,
2013-09-11 08:57:00,78.6,71.9,30.01,SSE,154,0.0,0.0,80,0.00,CLR,,0.00,WeatherDisplay:10.37,2013-09-11 12:57:00,
2013-09-11 08:58:00,78.8,71.7,30.01,SSE,154,0.0,0.0,79,0.00,CLR,,0.00,WeatherDisplay:10.37,2013-09-11 12:58:00,
2013-09-11 09:00:00,78.8,71.7,30.01,SW,232,0.0,0.0,79,0.00,CLR,,0.00,WeatherDisplay:10.37,2013-09-11 13:00:00,
2013-09-11 09:02:00,78.8,71.7,30.01,South,182,0.0,0.0,79,0.00,CLR,,0.00,WeatherDisplay:10.37,2013-09-11 13:02:00,
2013-09-11 09:05:00,79.0,71.9,30.01,SSE,150,0.0,0.0,79,0.00,CLR,,0.00,WeatherDisplay:10.37,2013-09-11 13:05:00,
2013-09-11 09:06:00,79.0,71.9,30.02,SSE,150,0.0,0.0,79,0.00,CLR,,0.00,WeatherDisplay:10.37,2013-09-11 13:06:00,
2013-09-11 09:07:00,79.0,71.9,30.02,SSE,150,0.0,0.0,79,0.00,CLR,,0.00,WeatherDisplay:10.37,2013-09-11 13:07:00,
2013-09-11 09:10:00,79.2,72.1,30.02,SSE,168,0.0,0.0,79,0.00,CLR,,0.00,WeatherDisplay:10.37,2013-09-11 13:10:00,
2013-09-11 09:11:00,79.2,71.7,30.02,SSE,168,0.0,0.0,78,0.00,CLR,,0.00,WeatherDisplay:10.37,2013-09-11 13:11:00,
2013-09-11 09:12:00,79.4,71.9,30.02,SSE,164,6.0,6.0,78,0.00,CLR,,0.00,WeatherDisplay:10.37,2013-09-11 13:12:00,
2013-09-11 09:15:00,79.6,72.1,30.02,SSE,164,11.5,0.0,78,0.00,CLR,,0.00,WeatherDisplay:10.37,2013-09-11 13:15:00,
2013-09-11 09:16:00,79.6,72.1,30.02,SW,224,0.0,0.0,78,0.00,CLR,,0.00,WeatherDisplay:10.37,2013-09-11 13:16:00,
2013-09-11 09:17:00,79.6,72.1,30.02,SW,215,0.0,0.0,78,0.00,CLR,,0.00,WeatherDisplay:10.37,2013-09-11 13:17:00,
2013-09-11 09:20:00,79.8,72.3,30.01,South,179,0.0,0.0,78,0.00,CLR,,0.00,WeatherDisplay:10.37,2013-09-11 13:20:00,
2013-09-11 09:21:00,79.8,72.3,30.01,South,184,0.0,0.0,78,0.00,CLR,,0.00,WeatherDisplay:10.37,2013-09-11 13:21:00,
2013-09-11 09:22:00,79.8,72.3,30.01,SE,145,3.0,3.0,78,0.00,CLR,,0.00,WeatherDisplay:10.37,2013-09-11 13:22:00,
2013-09-11 09:23:00,79.8,72.3,30.01,SE,145,5.0,5.0,78,0.00,CLR,,0.00,WeatherDisplay:10.37,2013-09-11 13:23:00,
2013-09-11 09:25:00,79.9,72.4,30.01,WSW,243,0.0,0.0,78,0.00,CLR,,0.00,WeatherDisplay:10.37,2013-09-11 13:25:00,
2013-09-11 09:26:00,79.9,72.4,30.01,SW,232,0.0,0.0,78,0.00,CLR,,0.00,WeatherDisplay:10.37,2013-09-11 13:26:00,
2013-09-11 09:28:00,79.9,72.4,30.01,SSW,195,0.0,0.0,78,0.00,CLR,,0.00,WeatherDisplay:10.37,2013-09-11 13:28:00,
2013-09-11 09:30:00,80.1,72.6,30.01,South,172,0.0,0.0,78,0.00,CLR,,0.00,WeatherDisplay:10.37,2013-09-11 13:30:00,
2013-09-11 09:31:00,80.1,72.6,30.01,South,171,7.0,7.0,78,0.00,CLR,,0.00,WeatherDisplay:10.37,2013-09-11 13:31:00,
2013-09-11 09:32:00,80.1,72.6,30.01,SE,127,6.9,6.9,78,0.00,CLR,,0.00,WeatherDisplay:10.37,2013-09-11 13:32:00,
2013-09-11 09:33:00,80.1,72.2,30.01,South,189,6.9,6.9,77,0.00,CLR,,0.00,WeatherDisplay:10.37,2013-09-11 13:33:00,
2013-09-11 09:34:00,80.1,72.2,30.01,SSW,198,0.0,0.0,77,0.00,CLR,,0.00,WeatherDisplay:10.37,2013-09-11 13:34:00,
2013-09-11 09:35:00,80.1,72.2,30.01,West,270,3.5,0.0,77,0.00,CLR,,0.00,WeatherDisplay:10.37,2013-09-11 13:35:00,
2013-09-11 09:36:00,80.3,72.4,30.01,West,267,0.0,0.0,77,0.00,CLR,,0.00,WeatherDisplay:10.37,2013-09-11 13:36:00,
2013-09-11 09:37:00,80.3,72.4,30.01,WSW,248,0.0,0.0,77,0.00,CLR,,0.00,WeatherDisplay:10.37,2013-09-11 13:37:00,
2013-09-11 09:38:00,80.3,72.4,30.01,WSW,248,0.0,0.0,77,0.00,CLR,,0.00,WeatherDisplay:10.37,2013-09-11 13:38:00,
2013-09-11 09:39:00,80.3,72.8,30.01,SW,220,0.0,0.0,78,0.00,CLR,,0.00,WeatherDisplay:10.37,2013-09-11 13:39:00,
2013-09-11 09:40:00,80.5,72.6,30.01,South,175,2.3,2.3,77,0.00,CLR,,0.00,WeatherDisplay:10.37,2013-09-11 13:40:00,
2013-09-11 09:41:00,80.7,72.8,30.01,South,176,2.3,0.0,77,0.00,CLR,,0.00,WeatherDisplay:10.37,2013-09-11 13:41:00,
2013-09-11 09:43:00,80.7,72.8,30.01,SSE,151,5.8,5.8,77,0.00,CLR,,0.00,WeatherDisplay:10.37,2013-09-11 13:43:00,
2013-09-11 09:44:00,80.7,72.8,30.01,SSE,157,4.0,4.0,77,0.00,CLR,,0.00,WeatherDisplay:10.37,2013-09-11 13:44:00,
2013-09-11 09:45:00,80.9,73.0,30.01,SSE,158,5.8,0.0,77,0.00,CLR,,0.00,WeatherDisplay:10.37,2013-09-11 13:45:00,
2013-09-11 09:46:00,80.9,72.6,30.01,SSW,212,0.0,0.0,76,0.00,CLR,,0.00,WeatherDisplay:10.37,2013-09-11 13:46:00,
2013-09-11 09:48:00,81.1,72.4,30.01,SW,216,0.0,0.0,75,0.00,CLR,,0.00,WeatherDisplay:10.37,2013-09-11 13:48:00,
2013-09-11 09:49:00,81.1,72.8,30.02,SW,216,0.0,0.0,76,0.00,CLR,,0.00,WeatherDisplay:10.37,2013-09-11 13:49:00,
2013-09-11 09:51:00,81.2,72.5,30.02,SE,137,0.0,0.0,75,0.00,CLR,,0.00,WeatherDisplay:10.37,2013-09-11 13:51:00,
2013-09-11 09:53:00,81.4,71.9,30.02,WSW,251,6.9,6.9,73,0.00,CLR,,0.00,WeatherDisplay:10.37,2013-09-11 13:53:00,
2013-09-11 09:55:00,81.6,72.5,30.01,SSW,196,0.0,0.0,74,0.00,CLR,,0.00,WeatherDisplay:10.37,2013-09-11 13:55:00,
2013-09-11 09:56:00,81.6,72.1,30.01,SW,224,0.0,0.0,73,0.00,CLR,,0.00,WeatherDisplay:10.37,2013-09-11 13:56:00,
2013-09-11 09:57:00,81.8,72.3,30.02,SW,224,0.0,0.0,73,0.00,CLR,,0.00,WeatherDisplay:10.37,2013-09-11 13:57:00,
2013-09-11 09:58:00,81.8,72.3,30.01,South,186,0.0,0.0,73,0.00,CLR,,0.00,WeatherDisplay:10.37,2013-09-11 13:58:00,
2013-09-11 09:59:00,81.8,72.3,30.02,SW,216,0.0,0.0,73,0.00,CLR,,0.00,WeatherDisplay:10.37,2013-09-11 13:59:00,
2013-09-11 10:00:00,82.0,72.9,30.01,SW,232,0.0,0.1,74,0.00,CLR,,0.00,WeatherDisplay:10.37,2013-09-11 14:00:00,
2013-09-11 10:01:00,82.0,72.5,30.01,WSW,246,1.1,0.0,73,0.00,CLR,,0.00,WeatherDisplay:10.37,2013-09-11 14:01:00,
2013-09-11 10:02:00,82.0,72.5,30.01,WSW,246,0.0,0.0,73,0.00,CLR,,0.00,WeatherDisplay:10.37,2013-09-11 14:02:00,
2013-09-11 10:03:00,82.2,72.7,30.01,WSW,246,0.0,0.0,73,0.00,CLR,,0.00,WeatherDisplay:10.37,2013-09-11 14:03:00,
2013-09-11 10:04:00,82.2,72.7,30.01,WSW,244,0.0,0.0,73,0.00,CLR,,0.00,WeatherDisplay:10.37,2013-09-11 14:04:00,
2013-09-11 10:06:00,82.4,72.9,30.01,WSW,240,1.1,0.0,73,0.00,CLR,,0.00,WeatherDisplay:10.37,2013-09-11 14:06:00,
2013-09-11 10:07:00,82.4,72.9,30.01,WSW,240,1.1,0.0,73,0.00,CLR,,0.00,WeatherDisplay:10.37,2013-09-11 14:07:00,
2013-09-11 10:08:00,82.4,72.9,30.01,SSW,206,0.0,0.0,73,0.00,CLR,,0.00,WeatherDisplay:10.37,2013-09-11 14:08:00,
2013-09-11 10:09:00,82.4,72.5,30.01,SSW,206,0.0,0.0,72,0.00,CLR,,0.00,WeatherDisplay:10.37,2013-09-11 14:09:00,
2013-09-11 10:12:00,82.6,73.1,30.01,SSW,209,0.0,0.0,73,0.00,CLR,,0.00,WeatherDisplay:10.37,2013-09-11 14:12:00,
2013-09-11 10:13:00,82.6,73.1,30.01,West,274,0.0,0.0,73,0.00,CLR,,0.00,WeatherDisplay:10.37,2013-09-11 14:13:00,
2013-09-11 10:15:00,82.6,72.2,30.02,West,263,0.0,0.0,71,0.00,CLR,,0.00,WeatherDisplay:10.37,2013-09-11 14:15:00,
2013-09-11 10:17:00,82.4,72.0,30.02,SSE,150,1.1,1.1,71,0.00,CLR,,0.00,WeatherDisplay:10.37,2013-09-11 14:17:00,
2013-09-11 10:18:00,82.4,71.6,30.02,West,277,3.5,0.0,70,0.00,CLR,,0.00,WeatherDisplay:10.37,2013-09-11 14:18:00,
2013-09-11 10:20:00,82.4,71.6,30.02,WSW,239,4.6,4.6,70,0.00,CLR,,0.00,WeatherDisplay:10.37,2013-09-11 14:20:00,
2013-09-11 10:22:00,82.4,72.0,30.02,South,191,1.1,0.0,71,0.00,CLR,,0.00,WeatherDisplay:10.37,2013-09-11 14:22:00,
2013-09-11 10:23:00,82.4,72.0,30.02,West,268,1.1,1.1,71,0.00,CLR,,0.00,WeatherDisplay:10.37,2013-09-11 14:23:00,
2013-09-11 10:26:00,82.4,71.6,30.02,West,267,0.0,0.0,70,0.00,CLR,,0.00,WeatherDisplay:10.37,2013-09-11 14:26:00,
2013-09-11 10:27:00,82.4,72.0,30.02,WSW,256,0.0,0.0,71,0.00,CLR,,0.00,WeatherDisplay:10.37,2013-09-11 14:27:00,
2013-09-11 10:28:00,82.4,72.0,30.02,South,172,3.5,3.5,71,0.00,CLR,,0.00,WeatherDisplay:10.37,2013-09-11 14:28:00,
2013-09-11 10:29:00,82.4,71.6,30.01,South,171,5.8,5.8,70,0.00,CLR,,0.00,WeatherDisplay:10.37,2013-09-11 14:29:00,
2013-09-11 10:31:00,82.2,71.4,30.01,South,172,0.0,0.0,70,0.00,CLR,,0.00,WeatherDisplay:10.37,2013-09-11 14:31:00,
2013-09-11 10:33:00,82.0,71.7,30.01,South,172,1.1,0.0,71,0.00,CLR,,0.00,WeatherDisplay:10.37,2013-09-11 14:33:00,
2013-09-11 10:34:00,81.8,71.5,30.01,SSE,155,1.1,0.0,71,0.00,CLR,,0.00,WeatherDisplay:10.37,2013-09-11 14:34:00,
2013-09-11 10:37:00,81.8,71.5,30.01,SSE,155,0.0,0.0,71,0.00,CLR,,0.00,WeatherDisplay:10.37,2013-09-11 14:37:00,
2013-09-11 10:38:00,81.8,71.9,30.01,SSE,155,0.0,0.0,72,0.00,CLR,,0.00,WeatherDisplay:10.37,2013-09-11 14:38:00,
2013-09-11 10:39:00,81.8,71.9,30.01,SSE,155,0.0,0.0,72,0.00,CLR,,0.00,WeatherDisplay:10.37,2013-09-11 14:39:00,
2013-09-11 10:42:00,82.0,72.1,30.01,South,191,1.0,0.0,72,0.00,CLR,,0.00,WeatherDisplay:10.37,2013-09-11 14:42:00,
2013-09-11 10:44:00,82.0,72.1,30.01,South,188,0.0,0.0,72,0.00,CLR,,0.00,WeatherDisplay:10.37,2013-09-11 14:44:00,
2013-09-11 10:47:00,82.0,71.7,30.01,SSE,154,3.0,3.0,71,0.00,CLR,,0.00,WeatherDisplay:10.37,2013-09-11 14:47:00,
2013-09-11 10:49:00,82.0,71.7,30.01,SSW,206,1.1,1.1,71,0.00,CLR,,0.00,WeatherDisplay:10.37,2013-09-11 14:49:00,
2013-09-11 10:53:00,82.4,72.5,30.01,SSW,202,0.0,0.0,72,0.00,CLR,,0.00,WeatherDisplay:10.37,2013-09-11 14:53:00,
2013-09-11 10:54:00,82.4,72.0,30.01,SSW,202,0.0,0.0,71,0.00,CLR,,0.00,WeatherDisplay:10.37,2013-09-11 14:54:00,
2013-09-11 10:55:00,82.6,72.2,30.01,SSW,202,0.0,0.0,71,0.00,CLR,,0.00,WeatherDisplay:10.37,2013-09-11 14:55:00,
2013-09-11 10:58:00,83.0,72.6,30.01,SSE,151,0.0,1.0,71,0.00,CLR,,0.00,WeatherDisplay:10.37,2013-09-11 14:58:00,
2013-09-11 10:59:00,83.2,72.4,30.01,SSE,151,5.8,5.8,70,0.00,CLR,,0.00,WeatherDisplay:10.37,2013-09-11 14:59:00,
2013-09-11 11:00:00,83.2,72.8,30.01,West,277,0.0,0.0,71,0.00,CLR,,0.00,WeatherDisplay:10.37,2013-09-11 15:00:00,
2013-09-11 11:01:00,83.4,72.6,30.01,West,275,2.3,2.3,70,0.00,CLR,,0.00,WeatherDisplay:10.37,2013-09-11 15:01:00,
2013-09-11 11:04:00,83.8,72.5,30.01,WNW,299,0.0,0.0,69,0.00,CLR,,0.00,WeatherDisplay:10.37,2013-09-11 15:04:00,
2013-09-11 11:05:00,83.8,72.5,30.01,WNW,299,0.0,0.0,69,0.00,CLR,,0.00,WeatherDisplay:10.37,2013-09-11 15:05:00,
2013-09-11 11:07:00,84.0,72.3,30.01,WNW,289,0.0,0.0,68,0.00,CLR,,0.00,WeatherDisplay:10.37,2013-09-11 15:07:00,
2013-09-11 11:09:00,84.1,72.4,30.01,West,265,0.0,0.1,68,0.00,CLR,,0.00,WeatherDisplay:10.37,2013-09-11 15:09:00,
2013-09-11 11:10:00,84.1,72.8,30.01,West,265,1.1,1.1,69,0.00,CLR,,0.00,WeatherDisplay:10.37,2013-09-11 15:10:00,
2013-09-11 11:11:00,84.1,72.8,30.01,South,174,0.0,0.0,69,0.00,CLR,,0.00,WeatherDisplay:10.37,2013-09-11 15:11:00,
2013-09-11 11:12:00,84.1,72.8,30.01,South,175,0.0,0.0,69,0.00,CLR,,0.00,WeatherDisplay:10.37,2013-09-11 15:12:00,
2013-09-11 11:14:00,84.1,72.8,30.01,West,264,5.8,0.0,69,0.00,CLR,,0.00,WeatherDisplay:10.37,2013-09-11 15:14:00,
2013-09-11 11:15:00,84.3,73.0,30.01,West,264,0.0,0.0,69,0.00,CLR,,0.00,WeatherDisplay:10.37,2013-09-11 15:15:00,
2013-09-11 11:16:00,84.3,73.0,30.01,West,264,0.0,0.0,69,0.00,CLR,,0.00,WeatherDisplay:10.37,2013-09-11 15:16:00,
2013-09-11 11:19:00,84.5,72.3,30.01,South,188,0.0,0.0,67,0.00,CLR,,0.00,WeatherDisplay:10.37,2013-09-11 15:19:00,
2013-09-11 11:20:00,84.7,72.5,30.01,WSW,254,0.0,0.0,67,0.00,CLR,,0.00,WeatherDisplay:10.37,2013-09-11 15:20:00,
2013-09-11 11:22:00,84.9,72.3,30.01,SW,236,1.1,1.1,66,0.00,CLR,,0.00,WeatherDisplay:10.37,2013-09-11 15:22:00,
2013-09-11 11:24:00,84.9,72.3,30.00,South,179,0.0,0.1,66,0.00,CLR,,0.00,WeatherDisplay:10.37,2013-09-11 15:24:00,
2013-09-11 11:25:00,84.9,71.8,30.01,South,179,0.0,0.1,65,0.00,CLR,,0.00,WeatherDisplay:10.37,2013-09-11 15:25:00,
2013-09-11 11:27:00,84.9,72.7,30.00,South,169,3.5,3.5,67,0.00,CLR,,0.00,WeatherDisplay:10.37,2013-09-11 15:27:00,
2013-09-11 11:28:00,84.9,72.7,30.00,South,171,3.5,3.5,67,0.00,CLR,,0.00,WeatherDisplay:10.37,2013-09-11 15:28:00,
2013-09-11 11:29:00,84.9,71.8,30.00,South,171,3.5,3.5,65,0.00,CLR,,0.00,WeatherDisplay:10.37,2013-09-11 15:29:00,
2013-09-11 11:30:00,84.9,72.3,30.00,SSE,165,1.1,1.1,66,0.00,CLR,,0.00,WeatherDisplay:10.37,2013-09-11 15:30:00,
2013-09-11 11:33:00,85.3,73.1,30.00,West,264,0.0,0.0,67,0.00,CLR,,0.00,WeatherDisplay:10.37,2013-09-11 15:33:00,
2013-09-11 11:34:00,85.3,72.6,30.00,SW,223,2.3,2.3,66,0.00,CLR,,0.00,WeatherDisplay:10.37,2013-09-11 15:34:00,
2013-09-11 11:35:00,85.3,72.2,30.00,South,182,2.3,0.0,65,0.00,CLR,,0.00,WeatherDisplay:10.37,2013-09-11 15:35:00,
2013-09-11 11:37:00,85.5,71.9,30.00,SE,134,5.0,5.0,64,0.00,CLR,,0.00,WeatherDisplay:10.37,2013-09-11 15:37:00,
2013-09-11 11:38:00,85.3,71.3,30.00,West,265,4.6,4.6,63,0.00,CLR,,0.00,WeatherDisplay:10.37,2013-09-11 15:38:00,
2013-09-11 11:40:00,85.1,71.1,30.00,West,265,1.1,1.1,63,0.00,CLR,,0.00,WeatherDisplay:10.37,2013-09-11 15:40:00,
2013-09-11 11:42:00,85.1,71.1,30.00,SSE,164,1.1,1.1,63,0.00,CLR,,0.00,WeatherDisplay:10.37,2013-09-11 15:42:00,
2013-09-11 11:43:00,85.3,71.3,30.00,SSW,198,1.1,0.0,63,0.00,CLR,,0.00,WeatherDisplay:10.37,2013-09-11 15:43:00,
2013-09-11 11:45:00,85.5,71.0,30.00,SSW,205,0.0,0.0,62,0.00,CLR,,0.00,WeatherDisplay:10.37,2013-09-11 15:45:00,
2013-09-11 11:46:00,85.5,70.5,30.00,SW,226,0.0,0.0,61,0.00,CLR,,0.00,WeatherDisplay:10.37,2013-09-11 15:46:00,
2013-09-11 11:47:00,85.5,70.5,30.00,WSW,241,0.0,0.0,61,0.00,CLR,,0.00,WeatherDisplay:10.37,2013-09-11 15:47:00,
2013-09-11 11:48:00,85.7,70.2,30.00,WSW,247,4.6,0.0,60,0.00,CLR,,0.00,WeatherDisplay:10.37,2013-09-11 15:48:00,
2013-09-11 11:50:00,85.9,70.4,30.00,SE,145,6.0,6.0,60,0.00,CLR,,0.00,WeatherDisplay:10.37,2013-09-11 15:50:00,
2013-09-11 11:51:00,85.9,69.9,30.00,SSE,154,5.8,0.0,59,0.00,CLR,,0.00,WeatherDisplay:10.37,2013-09-11 15:51:00,
2013-09-11 11:52:00,86.1,70.6,30.00,SSE,155,1.0,0.0,60,0.00,CLR,,0.00,WeatherDisplay:10.37,2013-09-11 15:52:00,
2013-09-11 11:54:00,86.1,70.6,30.00,West,263,5.8,5.8,60,0.00,CLR,,0.00,WeatherDisplay:10.37,2013-09-11 15:54:00,
2013-09-11 11:55:00,86.3,70.8,30.00,West,261,0.0,0.0,60,0.00,CLR,,0.00,WeatherDisplay:10.37,2013-09-11 15:55:00,
2013-09-11 11:56:00,86.3,70.8,30.00,West,261,1.1,0.0,60,0.00,CLR,,0.00,WeatherDisplay:10.37,2013-09-11 15:56:00,
2013-09-11 11:57:00,86.7,71.6,30.00,West,261,0.0,0.0,61,0.00,CLR,,0.00,WeatherDisplay:10.37,2013-09-11 15:57:00,
2013-09-11 11:59:00,86.7,71.2,30.00,South,182,2.3,2.3,60,0.00,CLR,,0.00,WeatherDisplay:10.37,2013-09-11 15:59:00,
2013-09-11 12:00:00,86.7,70.7,30.00,SSE,160,4.6,4.6,59,0.00,CLR,,0.00,WeatherDisplay:10.37,2013-09-11 16:00:00,
2013-09-11 12:02:00,86.7,70.2,30.00,SSW,212,0.0,0.0,58,0.00,CLR,,0.00,WeatherDisplay:10.37,2013-09-11 16:02:00,
2013-09-11 12:03:00,86.7,70.2,30.00,WSW,241,1.0,0.0,58,0.00,CLR,,0.00,WeatherDisplay:10.37,2013-09-11 16:03:00,
2013-09-11 12:05:00,86.7,71.2,30.00,SE,140,3.5,3.5,60,0.00,CLR,,0.00,WeatherDisplay:10.37,2013-09-11 16:05:00,
2013-09-11 12:07:00,86.7,71.2,30.00,South,186,5.8,5.8,60,0.00,CLR,,0.00,WeatherDisplay:10.37,2013-09-11 16:07:00,
2013-09-11 12:08:00,86.7,71.6,30.00,South,186,0.0,0.0,61,0.00,CLR,,0.00,WeatherDisplay:10.37,2013-09-11 16:08:00,
2013-09-11 12:09:00,86.7,71.6,30.00,West,263,0.0,0.0,61,0.00,CLR,,0.00,WeatherDisplay:10.37,2013-09-11 16:09:00,
2013-09-11 12:10:00,87.0,70.4,30.00,SW,230,0.0,0.0,58,0.00,CLR,,0.00,WeatherDisplay:10.37,2013-09-11 16:10:00,
2013-09-11 12:12:00,87.2,71.1,30.00,SW,229,0.0,0.0,59,0.00,CLR,,0.00,WeatherDisplay:10.37,2013-09-11 16:12:00,
2013-09-11 12:13:00,87.4,71.3,30.00,SW,229,0.0,0.0,59,0.00,CLR,,0.00,WeatherDisplay:10.37,2013-09-11 16:13:00,
2013-09-11 12:14:00,87.4,70.8,30.00,West,274,0.0,0.1,58,0.00,CLR,,0.00,WeatherDisplay:10.37,2013-09-11 16:14:00,
2013-09-11 12:15:00,87.4,70.3,30.00,West,268,0.0,0.3,57,0.00,CLR,,0.00,WeatherDisplay:10.37,2013-09-11 16:15:00,
2013-09-11 12:16:00,87.4,69.8,30.00,West,281,2.3,0.0,56,0.00,CLR,,0.00,WeatherDisplay:10.37,2013-09-11 16:16:00,
2013-09-11 12:17:00,87.6,70.0,30.00,SSE,158,0.0,0.0,56,0.00,CLR,,0.00,WeatherDisplay:10.37,2013-09-11 16:17:00,
2013-09-11 12:19:00,87.6,70.0,30.00,WSW,251,4.6,4.6,56,0.00,CLR,,0.00,WeatherDisplay:10.37,2013-09-11 16:19:00,
2013-09-11 12:20:00,87.4,69.8,30.00,WSW,251,0.0,0.0,56,0.00,CLR,,0.00,WeatherDisplay:10.37,2013-09-11 16:20:00,
2013-09-11 12:21:00,87.6,70.0,30.00,WSW,251,0.0,0.0,56,0.00,CLR,,0.00,WeatherDisplay:10.37,2013-09-11 16:21:00,
2013-09-11 12:22:00,87.6,70.0,30.00,WSW,257,7.0,7.0,56,0.00,CLR,,0.00,WeatherDisplay:10.37,2013-09-11 16:22:00,
2013-09-11 12:24:00,87.4,69.8,30.00,West,260,6.9,0.0,56,0.00,CLR,,0.00,WeatherDisplay:10.37,2013-09-11 16:24:00,
2013-09-11 12:25:00,87.4,70.3,30.00,South,172,4.6,0.0,57,0.00,CLR,,0.00,WeatherDisplay:10.37,2013-09-11 16:25:00,
2013-09-11 12:26:00,87.4,70.3,30.00,South,172,4.6,0.0,57,0.00,CLR,,0.00,WeatherDisplay:10.37,2013-09-11 16:26:00,
2013-09-11 12:28:00,87.4,70.8,30.00,West,278,0.0,0.4,58,0.00,CLR,,0.00,WeatherDisplay:10.37,2013-09-11 16:28:00,
2013-09-11 12:29:00,87.4,70.8,30.00,West,278,0.0,0.0,58,0.00,CLR,,0.00,WeatherDisplay:10.37,2013-09-11 16:29:00,
2013-09-11 12:31:00,87.4,70.3,30.00,West,278,8.1,8.1,57,0.00,CLR,,0.00,WeatherDisplay:10.37,2013-09-11 16:31:00,
2013-09-11 12:32:00,87.4,70.3,30.00,WSW,251,5.8,5.8,57,0.00,CLR,,0.00,WeatherDisplay:10.37,2013-09-11 16:32:00,
2013-09-11 12:33:00,87.4,70.3,30.00,West,271,5.8,5.8,57,0.00,CLR,,0.00,WeatherDisplay:10.37,2013-09-11 16:33:00,
2013-09-11 12:34:00,87.4,69.8,30.00,WSW,254,16.1,16.1,56,0.00,CLR,,0.00,WeatherDisplay:10.37,2013-09-11 16:34:00,
2013-09-11 12:36:00,87.0,69.9,30.00,West,274,5.8,5.8,57,0.00,CLR,,0.00,WeatherDisplay:10.37,2013-09-11 16:36:00,
2013-09-11 12:37:00,87.0,70.4,30.00,West,261,4.6,4.6,58,0.00,CLR,,0.00,WeatherDisplay:10.37,2013-09-11 16:37:00,
2013-09-11 12:38:00,87.0,70.4,30.00,WSW,239,2.3,2.3,58,0.00,CLR,,0.00,WeatherDisplay:10.37,2013-09-11 16:38:00,
2013-09-11 12:39:00,87.0,70.4,30.00,WSW,239,4.6,0.0,58,0.00,CLR,,0.00,WeatherDisplay:10.37,2013-09-11 16:39:00,
2013-09-11 12:41:00,86.7,70.7,30.00,West,261,3.5,3.5,59,0.00,CLR,,0.00,WeatherDisplay:10.37,2013-09-11 16:41:00,
2013-09-11 12:43:00,86.5,70.0,30.00,West,272,6.9,6.9,58,0.00,CLR,,0.00,WeatherDisplay:10.37,2013-09-11 16:43:00,
2013-09-11 12:45:00,86.3,70.8,30.00,West,268,1.1,1.1,60,0.00,CLR,,0.00,WeatherDisplay:10.37,2013-09-11 16:45:00,
2013-09-11 12:46:00,86.3,70.8,30.00,West,263,3.5,3.5,60,0.00,CLR,,0.00,WeatherDisplay:10.37,2013-09-11 16:46:00,
2013-09-11 12:48:00,86.3,70.8,29.99,NW,305,3.5,3.5,60,0.00,CLR,,0.00,WeatherDisplay:10.37,2013-09-11 16:48:00,
2013-09-11 12:51:00,86.3,71.3,29.99,WNW,299,0.0,0.0,61,0.00,CLR,,0.00,WeatherDisplay:10.37,2013-09-11 16:51:00,
2013-09-11 12:53:00,86.5,71.9,29.99,SW,226,1.1,1.1,62,0.00,CLR,,0.00,WeatherDisplay:10.37,2013-09-11 16:53:00,
2013-09-11 12:54:00,86.5,71.9,29.99,SSE,150,6.9,6.9,62,0.00,CLR,,0.00,WeatherDisplay:10.37,2013-09-11 16:54:00,
2013-09-11 12:56:00,86.3,70.8,29.99,SE,126,6.9,6.9,60,0.00,CLR,,0.00,WeatherDisplay:10.37,2013-09-11 16:56:00,
2013-09-11 12:58:00,86.3,71.7,29.99,SW,220,2.0,2.0,62,0.00,CLR,,0.00,WeatherDisplay:10.37,2013-09-11 16:58:00,
2013-09-11 12:59:00,86.3,71.3,29.99,SW,220,3.5,3.5,61,0.00,CLR,,0.00,WeatherDisplay:10.37,2013-09-11 16:59:00,
2013-09-11 13:01:00,86.5,70.5,29.99,SSW,200,3.5,3.5,59,0.00,CLR,,0.00,WeatherDisplay:10.37,2013-09-11 17:01:00,
2013-09-11 13:03:00,86.5,70.5,29.99,West,280,4.6,4.6,59,0.00,CLR,,0.00,WeatherDisplay:10.37,2013-09-11 17:03:00,
2013-09-11 13:04:00,86.5,70.5,29.99,West,270,5.8,5.8,59,0.00,CLR,,0.00,WeatherDisplay:10.37,2013-09-11 17:04:00,
2013-09-11 13:06:00,87.0,70.9,29.99,WSW,257,0.0,0.2,59,0.00,CLR,,0.00,WeatherDisplay:10.37,2013-09-11 17:06:00,
2013-09-11 13:09:00,87.0,70.4,29.99,WSW,257,5.8,5.8,58,0.00,CLR,,0.00,WeatherDisplay:10.37,2013-09-11 17:09:00,
2013-09-11 13:10:00,87.2,71.1,29.99,WSW,258,2.3,2.3,59,0.00,CLR,,0.00,WeatherDisplay:10.37,2013-09-11 17:10:00,
2013-09-11 13:11:00,87.2,70.6,29.99,WSW,253,3.5,0.0,58,0.00,CLR,,0.00,WeatherDisplay:10.37,2013-09-11 17:11:00,
2013-09-11 13:14:00,87.4,70.3,29.99,WSW,254,1.1,0.0,57,0.00,CLR,,0.00,WeatherDisplay:10.37,2013-09-11 17:14:00,
2013-09-11 13:15:00,87.6,70.5,29.99,West,260,0.0,0.3,57,0.00,CLR,,0.00,WeatherDisplay:10.37,2013-09-11 17:15:00,
2013-09-11 13:17:00,87.8,70.1,29.98,West,263,8.1,8.1,56,0.00,CLR,,0.00,WeatherDisplay:10.37,2013-09-11 17:17:00,
2013-09-11 13:19:00,88.0,70.3,29.98,West,263,0.0,0.0,56,0.00,CLR,,0.00,WeatherDisplay:10.37,2013-09-11 17:19:00,
2013-09-11 13:20:00,88.2,69.5,29.98,WNW,292,0.0,1.8,54,0.00,CLR,,0.00,WeatherDisplay:10.37,2013-09-11 17:20:00,
2013-09-11 13:21:00,88.2,69.5,29.98,West,264,0.0,3.5,54,0.00,CLR,,0.00,WeatherDisplay:10.37,2013-09-11 17:21:00,
2013-09-11 13:22:00,88.2,68.9,29.98,West,270,2.3,2.3,53,0.00,CLR,,0.00,WeatherDisplay:10.37,2013-09-11 17:22:00,
2013-09-11 13:24:00,88.2,68.4,29.98,SW,222,4.6,4.6,52,0.00,CLR,,0.00,WeatherDisplay:10.37,2013-09-11 17:24:00,
2013-09-11 13:25:00,88.0,68.2,29.98,SW,226,11.5,11.5,52,0.00,CLR,,0.00,WeatherDisplay:10.37,2013-09-11 17:25:00,
2013-09-11 13:26:00,88.0,67.6,29.98,WSW,240,6.9,6.9,51,0.00,CLR,,0.00,WeatherDisplay:10.37,2013-09-11 17:26:00,
2013-09-11 13:27:00,88.0,67.6,29.98,WSW,251,3.5,3.5,51,0.00,CLR,,0.00,WeatherDisplay:10.37,2013-09-11 17:27:00,
2013-09-11 13:30:00,88.2,68.4,29.98,WSW,251,1.1,0.0,52,0.00,CLR,,0.00,WeatherDisplay:10.37,2013-09-11 17:30:00,
2013-09-11 13:31:00,88.2,68.4,29.98,SW,233,2.3,2.3,52,0.00,CLR,,0.00,WeatherDisplay:10.37,2013-09-11 17:31:00,
2013-09-11 13:32:00,88.2,67.8,29.98,West,268,10.4,10.4,51,0.00,CLR,,0.00,WeatherDisplay:10.37,2013-09-11 17:32:00,
2013-09-11 13:35:00,88.2,68.4,29.98,West,278,2.3,2.3,52,0.00,CLR,,0.00,WeatherDisplay:10.37,2013-09-11 17:35:00,
2013-09-11 13:36:00,88.2,67.8,29.98,West,264,2.0,2.6,51,0.00,CLR,,0.00,WeatherDisplay:10.37,2013-09-11 17:36:00,
2013-09-11 13:37:00,88.2,67.8,29.98,West,263,10.4,10.4,51,0.00,CLR,,0.00,WeatherDisplay:10.37,2013-09-11 17:37:00,
2013-09-11 13:38:00,88.4,68.0,29.98,WSW,253,1.1,0.0,51,0.00,CLR,,0.00,WeatherDisplay:10.37,2013-09-11 17:38:00,
2013-09-11 13:40:00,88.4,68.0,29.98,SW,216,4.6,4.6,51,0.00,CLR,,0.00,WeatherDisplay:10.37,2013-09-11 17:40:00,
2013-09-11 13:42:00,88.6,68.2,29.98,WSW,247,3.5,3.5,51,0.00,CLR,,0.00,WeatherDisplay:10.37,2013-09-11 17:42:00,
2013-09-11 13:44:00,88.6,68.7,29.98,West,275,6.0,6.0,52,0.00,CLR,,0.00,WeatherDisplay:10.37,2013-09-11 17:44:00,
2013-09-11 13:45:00,88.6,67.6,29.98,West,270,11.5,11.5,50,0.00,CLR,,0.00,WeatherDisplay:10.37,2013-09-11 17:45:00,
2013-09-11 13:47:00,88.4,68.0,29.98,West,268,8.1,8.1,51,0.00,CLR,,0.00,WeatherDisplay:10.37,2013-09-11 17:47:00,
2013-09-11 13:48:00,88.2,67.8,29.98,West,265,8.1,8.1,51,0.00,CLR,,0.00,WeatherDisplay:10.37,2013-09-11 17:48:00,
2013-09-11 13:49:00,88.2,67.8,29.98,West,265,1.1,0.0,51,0.00,CLR,,0.00,WeatherDisplay:10.37,2013-09-11 17:49:00,
2013-09-11 13:50:00,88.2,67.8,29.98,WSW,244,4.6,4.6,51,0.00,CLR,,0.00,WeatherDisplay:10.37,2013-09-11 17:50:00,
2013-09-11 13:52:00,88.2,68.4,29.98,West,274,2.3,0.0,52,0.00,CLR,,0.00,WeatherDisplay:10.37,2013-09-11 17:52:00,
2013-09-11 13:53:00,88.2,68.4,29.98,West,274,0.0,0.0,52,0.00,CLR,,0.00,WeatherDisplay:10.37,2013-09-11 17:53:00,
2013-09-11 13:54:00,88.2,68.4,29.97,West,274,0.0,0.2,52,0.00,CLR,,0.00,WeatherDisplay:10.37,2013-09-11 17:54:00,
2013-09-11 13:56:00,88.2,67.8,29.97,West,268,1.1,1.1,51,0.00,CLR,,0.00,WeatherDisplay:10.37,2013-09-11 17:56:00,
2013-09-11 13:57:00,88.0,67.6,29.97,West,267,10.4,10.4,51,0.00,CLR,,0.00,WeatherDisplay:10.37,2013-09-11 17:57:00,
2013-09-11 13:58:00,88.0,67.6,29.97,West,267,1.1,1.1,51,0.00,CLR,,0.00,WeatherDisplay:10.37,2013-09-11 17:58:00,
2013-09-11 13:59:00,88.0,68.2,29.97,West,263,1.1,1.5,52,0.00,CLR,,0.00,WeatherDisplay:10.37,2013-09-11 17:59:00,
2013-09-11 14:00:00,88.0,67.6,29.97,WSW,258,10.4,10.4,51,0.00,CLR,,0.00,WeatherDisplay:10.37,2013-09-11 18:00:00,
2013-09-11 14:01:00,88.0,67.6,29.97,West,281,8.0,8.0,51,0.00,CLR,,0.00,WeatherDisplay:10.37,2013-09-11 18:01:00,
2013-09-11 14:02:00,88.0,67.6,29.97,WSW,248,11.5,11.5,51,0.00,CLR,,0.00,WeatherDisplay:10.37,2013-09-11 18:02:00,
2013-09-11 14:03:00,88.0,68.2,29.97,West,278,3.5,3.5,52,0.00,CLR,,0.00,WeatherDisplay:10.37,2013-09-11 18:03:00,
2013-09-11 14:05:00,88.0,67.6,29.97,West,274,5.8,5.8,51,0.00,CLR,,0.00,WeatherDisplay:10.37,2013-09-11 18:05:00,
2013-09-11 14:06:00,88.2,67.8,29.97,West,274,0.0,0.0,51,0.00,CLR,,0.00,WeatherDisplay:10.37,2013-09-11 18:06:00,
2013-09-11 14:08:00,88.6,68.7,29.96,West,274,0.0,0.0,52,0.00,CLR,,0.00,WeatherDisplay:10.37,2013-09-11 18:08:00,
2013-09-11 14:10:00,88.8,68.3,29.96,West,277,3.5,3.5,51,0.00,CLR,,0.00,WeatherDisplay:10.37,2013-09-11 18:10:00,
2013-09-11 14:11:00,89.0,68.5,29.96,West,277,2.3,2.3,51,0.00,CLR,,0.00,WeatherDisplay:10.37,2013-09-11 18:11:00,
2013-09-11 14:13:00,89.3,68.2,29.96,West,277,2.3,0.0,50,0.00,CLR,,0.00,WeatherDisplay:10.37,2013-09-11 18:13:00,
2013-09-11 14:15:00,89.5,68.4,29.96,WSW,257,3.5,3.5,50,0.00,CLR,,0.00,WeatherDisplay:10.37,2013-09-11 18:15:00,
2013-09-11 14:16:00,89.5,68.4,29.96,West,278,3.5,3.5,50,0.00,CLR,,0.00,WeatherDisplay:10.37,2013-09-11 18:16:00,
2013-09-11 14:18:00,89.5,67.8,29.95,WSW,237,5.8,5.8,49,0.00,CLR,,0.00,WeatherDisplay:10.37,2013-09-11 18:18:00,
2013-09-11 14:20:00,89.7,67.4,29.95,WNW,284,6.9,6.9,48,0.00,CLR,,0.00,WeatherDisplay:10.37,2013-09-11 18:20:00,
2013-09-11 14:21:00,89.5,67.8,29.95,WNW,282,11.5,11.5,49,0.00,CLR,,0.00,WeatherDisplay:10.37,2013-09-11 18:21:00,
2013-09-11 14:22:00,89.7,68.0,29.95,WSW,258,5.8,5.8,49,0.00,CLR,,0.00,WeatherDisplay:10.37,2013-09-11 18:22:00,
2013-09-11 14:23:00,89.5,67.8,29.95,West,277,5.8,5.8,49,0.00,CLR,,0.00,WeatherDisplay:10.37,2013-09-11 18:23:00,
2013-09-11 14:26:00,89.5,67.8,29.95,West,268,2.3,2.3,49,0.00,CLR,,0.00,WeatherDisplay:10.37,2013-09-11 18:26:00,
2013-09-11 14:27:00,89.7,68.6,29.95,WNW,285,3.5,3.5,50,0.00,CLR,,0.00,WeatherDisplay:10.37,2013-09-11 18:27:00,
2013-09-11 14:28:00,89.7,68.6,29.95,SW,220,5.8,5.8,50,0.00,CLR,,0.00,WeatherDisplay:10.37,2013-09-11 18:28:00,
2013-09-11 14:31:00,89.9,68.8,29.95,WSW,258,6.0,6.0,50,0.00,CLR,,0.00,WeatherDisplay:10.37,2013-09-11 18:31:00,
2013-09-11 14:32:00,89.9,67.6,29.95,West,268,6.9,6.9,48,0.00,CLR,,0.00,WeatherDisplay:10.37,2013-09-11 18:32:00,
2013-09-11 14:33:00,90.1,67.8,29.95,West,272,6.9,6.9,48,0.00,CLR,,0.00,WeatherDisplay:10.37,2013-09-11 18:33:00,
2013-09-11 14:37:00,90.1,67.2,29.95,West,274,0.0,0.0,47,0.00,CLR,,0.00,WeatherDisplay:10.37,2013-09-11 18:37:00,
2013-09-11 14:38:00,90.1,67.8,29.95,West,272,4.6,4.6,48,0.00,CLR,,0.00,WeatherDisplay:10.37,2013-09-11 18:38:00,
2013-09-11 14:42:00,89.7,66.2,29.95,WSW,251,11.5,11.5,46,0.00,CLR,,0.00,WeatherDisplay:10.37,2013-09-11 18:42:00,
2013-09-11 14:43:00,89.7,66.8,29.95,West,271,5.8,5.8,47,0.00,CLR,,0.00,WeatherDisplay:10.37,2013-09-11 18:43:00,
2013-09-11 14:44:00,89.5,66.6,29.95,WNW,282,7.0,7.0,47,0.00,CLR,,0.00,WeatherDisplay:10.37,2013-09-11 18:44:00,
2013-09-11 14:47:00,89.7,66.8,29.95,WSW,251,1.1,1.9,47,0.00,CLR,,0.00,WeatherDisplay:10.37,2013-09-11 18:47:00,
2013-09-11 14:48:00,89.7,66.8,29.95,West,274,6.9,6.9,47,0.00,CLR,,0.00,WeatherDisplay:10.37,2013-09-11 18:48:00,
2013-09-11 14:49:00,89.5,66.0,29.95,SW,236,9.2,0.0,46,0.00,CLR,,0.00,WeatherDisplay:10.37,2013-09-11 18:49:00,
2013-09-11 14:53:00,89.7,67.4,29.95,WSW,244,1.1,1.1,48,0.00,CLR,,0.00,WeatherDisplay:10.37,2013-09-11 18:53:00,
2013-09-11 14:54:00,89.7,66.2,29.94,WNW,284,5.8,5.8,46,0.00,CLR,,0.00,WeatherDisplay:10.37,2013-09-11 18:54:00,
2013-09-11 14:55:00,89.7,66.8,29.94,West,268,2.3,2.3,47,0.00,CLR,,0.00,WeatherDisplay:10.37,2013-09-11 18:55:00,
2013-09-11 14:58:00,89.9,67.6,29.94,West,261,0.0,0.0,48,0.00,CLR,,0.00,WeatherDisplay:10.37,2013-09-11 18:58:00,
2013-09-11 14:59:00,89.9,68.8,29.94,SSW,196,1.0,1.0,50,0.00,CLR,,0.00,WeatherDisplay:10.37,2013-09-11 18:59:00,
2013-09-11 15:00:00,90.1,67.8,29.94,WNW,288,7.0,7.0,48,0.00,CLR,,0.00,WeatherDisplay:10.37,2013-09-11 19:00:00,
2013-09-11 15:01:00,90.1,67.2,29.94,West,272,8.1,8.1,47,0.00,CLR,,0.00,WeatherDisplay:10.37,2013-09-11 19:01:00,
2013-09-11 15:03:00,90.1,66.5,29.94,West,271,6.9,6.9,46,0.00,CLR,,0.00,WeatherDisplay:10.37,2013-09-11 19:03:00,
2013-09-11 15:04:00,90.1,66.5,29.94,WSW,251,5.0,5.0,46,0.00,CLR,,0.00,WeatherDisplay:10.37,2013-09-11 19:04:00,
2013-09-11 15:05:00,90.1,67.2,29.94,WNW,282,4.6,4.6,47,0.00,CLR,,0.00,WeatherDisplay:10.37,2013-09-11 19:05:00,
2013-09-11 15:06:00,90.1,67.2,29.94,WSW,241,2.3,2.3,47,0.00,CLR,,0.00,WeatherDisplay:10.37,2013-09-11 19:06:00,
2013-09-11 15:08:00,90.3,67.3,29.94,West,261,5.8,5.8,47,0.00,CLR,,0.00,WeatherDisplay:10.37,2013-09-11 19:08:00,
2013-09-11 15:09:00,90.3,67.3,29.94,West,261,2.3,2.3,47,0.00,CLR,,0.00,WeatherDisplay:10.37,2013-09-11 19:09:00,
2013-09-11 15:11:00,90.5,67.5,29.94,West,264,5.8,0.0,47,0.00,CLR,,0.00,WeatherDisplay:10.37,2013-09-11 19:11:00,
2013-09-11 15:12:00,90.5,67.5,29.94,SW,227,7.0,7.0,47,0.00,CLR,,0.00,WeatherDisplay:10.37,2013-09-11 19:12:00,
2013-09-11 15:13:00,90.3,66.7,29.94,WNW,282,11.5,11.5,46,0.00,CLR,,0.00,WeatherDisplay:10.37,2013-09-11 19:13:00,
2013-09-11 15:14:00,90.3,67.3,29.94,West,268,8.1,8.1,47,0.00,CLR,,0.00,WeatherDisplay:10.37,2013-09-11 19:14:00,
2013-09-11 15:16:00,90.3,66.7,29.94,West,278,4.6,4.6,46,0.00,CLR,,0.00,WeatherDisplay:10.37,2013-09-11 19:16:00,
2013-09-11 15:17:00,90.3,66.7,29.94,SW,217,1.1,1.1,46,0.00,CLR,,0.00,WeatherDisplay:10.37,2013-09-11 19:17:00,
2013-09-11 15:18:00,90.3,66.7,29.94,NW,311,5.8,5.8,46,0.00,CLR,,0.00,WeatherDisplay:10.37,2013-09-11 19:18:00,
2013-09-11 15:19:00,90.3,66.7,29.93,WSW,258,4.6,4.6,46,0.00,CLR,,0.00,WeatherDisplay:10.37,2013-09-11 19:19:00,
2013-09-11 15:20:00,90.3,67.3,29.93,WSW,258,8.1,8.1,47,0.00,CLR,,0.00,WeatherDisplay:10.37,2013-09-11 19:20:00,
2013-09-11 15:22:00,90.5,68.1,29.93,WSW,258,2.3,0.0,48,0.00,CLR,,0.00,WeatherDisplay:10.37,2013-09-11 19:22:00,
2013-09-11 15:23:00,90.5,68.1,29.93,West,265,2.0,2.0,48,0.00,CLR,,0.00,WeatherDisplay:10.37,2013-09-11 19:23:00,
2013-09-11 15:24:00,90.7,68.3,29.93,West,274,5.8,5.8,48,0.00,CLR,,0.00,WeatherDisplay:10.37,2013-09-11 19:24:00,
2013-09-11 15:26:00,91.0,68.6,29.93,West,281,3.5,3.5,48,0.00,CLR,,0.00,WeatherDisplay:10.37,2013-09-11 19:26:00,
2013-09-11 15:27:00,91.0,69.2,29.93,SE,126,2.3,2.3,49,0.00,CLR,,0.00,WeatherDisplay:10.37,2013-09-11 19:27:00,
2013-09-11 15:29:00,91.0,69.2,29.93,WSW,243,5.8,5.8,49,0.00,CLR,,0.00,WeatherDisplay:10.37,2013-09-11 19:29:00,
2013-09-11 15:31:00,90.5,68.7,29.93,West,264,4.6,4.6,49,0.00,CLR,,0.00,WeatherDisplay:10.37,2013-09-11 19:31:00,
2013-09-11 15:33:00,90.5,69.3,29.93,WSW,253,2.3,2.3,50,0.00,CLR,,0.00,WeatherDisplay:10.37,2013-09-11 19:33:00,
2013-09-11 15:34:00,90.3,68.5,29.93,WSW,247,3.5,3.5,49,0.00,CLR,,0.00,WeatherDisplay:10.37,2013-09-11 19:34:00,
2013-09-11 15:35:00,90.3,68.5,29.93,WSW,247,5.8,5.8,49,0.00,CLR,,0.00,WeatherDisplay:10.37,2013-09-11 19:35:00,
2013-09-11 15:37:00,90.1,67.8,29.92,West,263,6.9,6.9,48,0.00,CLR,,0.00,WeatherDisplay:10.37,2013-09-11 19:37:00,
2013-09-11 15:38:00,90.1,68.4,29.92,WSW,258,5.8,5.8,49,0.00,CLR,,0.00,WeatherDisplay:10.37,2013-09-11 19:38:00,
2013-09-11 15:39:00,89.9,68.2,29.92,WNW,298,5.8,5.8,49,0.00,CLR,,0.00,WeatherDisplay:10.37,2013-09-11 19:39:00,
2013-09-11 15:40:00,89.9,68.2,29.92,WSW,251,13.8,13.8,49,0.00,CLR,,0.00,WeatherDisplay:10.37,2013-09-11 19:40:00,
2013-09-11 15:42:00,89.7,67.4,29.92,WSW,257,5.0,5.0,48,0.00,CLR,,0.00,WeatherDisplay:10.37,2013-09-11 19:42:00,
2013-09-11 15:43:00,89.9,67.6,29.92,WSW,237,5.8,5.8,48,0.00,CLR,,0.00,WeatherDisplay:10.37,2013-09-11 19:43:00,
2013-09-11 15:44:00,89.9,67.6,29.92,West,265,3.5,3.5,48,0.00,CLR,,0.00,WeatherDisplay:10.37,2013-09-11 19:44:00,
2013-09-11 15:45:00,89.9,67.0,29.92,WNW,302,6.9,6.9,47,0.00,CLR,,0.00,WeatherDisplay:10.37,2013-09-11 19:45:00,
2013-09-11 15:47:00,89.7,66.8,29.92,WSW,254,10.4,10.4,47,0.00,CLR,,0.00,WeatherDisplay:10.37,2013-09-11 19:47:00,
2013-09-11 15:48:00,89.7,66.8,29.92,West,281,6.9,6.9,47,0.00,CLR,,0.00,WeatherDisplay:10.37,2013-09-11 19:48:00,
2013-09-11 15:50:00,89.7,66.8,29.92,West,263,8.1,8.1,47,0.00,CLR,,0.00,WeatherDisplay:10.37,2013-09-11 19:50:00,
2013-09-11 15:53:00,89.7,66.8,29.92,West,281,8.1,8.1,47,0.00,CLR,,0.00,WeatherDisplay:10.37,2013-09-11 19:53:00,
2013-09-11 15:54:00,89.7,66.8,29.92,West,260,7.0,7.0,47,0.00,CLR,,0.00,WeatherDisplay:10.37,2013-09-11 19:54:00,
2013-09-11 15:55:00,89.7,66.8,29.92,West,268,6.9,6.9,47,0.00,CLR,,0.00,WeatherDisplay:10.37,2013-09-11 19:55:00,
2013-09-11 15:56:00,89.7,66.8,29.92,West,278,4.6,4.6,47,0.00,CLR,,0.00,WeatherDisplay:10.37,2013-09-11 19:56:00,
2013-09-11 15:58:00,89.9,67.0,29.92,West,265,5.8,5.8,47,0.00,CLR,,0.00,WeatherDisplay:10.37,2013-09-11 19:58:00,
2013-09-11 15:59:00,89.9,67.6,29.92,WSW,258,5.8,5.8,48,0.00,CLR,,0.00,WeatherDisplay:10.37,2013-09-11 19:59:00,
2013-09-11 16:00:00,89.9,67.0,29.92,WSW,257,5.8,5.8,47,0.00,CLR,,0.00,WeatherDisplay:10.37,2013-09-11 20:00:00,
2013-09-11 16:01:00,89.9,67.0,29.92,WSW,256,6.9,6.9,47,0.00,CLR,,0.00,WeatherDisplay:10.37,2013-09-11 20:01:00,
2013-09-11 16:03:00,89.9,67.6,29.92,South,169,3.5,3.5,48,0.00,CLR,,0.00,WeatherDisplay:10.37,2013-09-11 20:03:00,
2013-09-11 16:04:00,89.9,67.6,29.92,South,181,5.8,5.8,48,0.00,CLR,,0.00,WeatherDisplay:10.37,2013-09-11 20:04:00,
2013-09-11 16:05:00,89.9,67.6,29.92,South,181,1.1,1.1,48,0.00,CLR,,0.00,WeatherDisplay:10.37,2013-09-11 20:05:00,
2013-09-11 16:06:00,89.9,68.2,29.92,West,277,3.0,3.0,49,0.00,CLR,,0.00,WeatherDisplay:10.37,2013-09-11 20:06:00,
2013-09-11 16:09:00,89.9,67.6,29.92,SSE,148,2.3,2.3,48,0.00,CLR,,0.00,WeatherDisplay:10.37,2013-09-11 20:09:00,
2013-09-11 16:10:00,89.9,68.2,29.92,SSE,148,2.3,2.3,49,0.00,CLR,,0.00,WeatherDisplay:10.37,2013-09-11 20:10:00,
2013-09-11 16:11:00,89.9,67.6,29.91,SSW,199,4.6,4.6,48,0.00,CLR,,0.00,WeatherDisplay:10.37,2013-09-11 20:11:00,
2013-09-11 16:15:00,89.9,67.0,29.91,West,274,7.0,7.0,47,0.00,CLR,,0.00,WeatherDisplay:10.37,2013-09-11 20:15:00,
2013-09-11 16:16:00,89.9,67.6,29.91,West,268,5.8,5.8,48,0.00,CLR,,0.00,WeatherDisplay:10.37,2013-09-11 20:16:00,
2013-09-11 16:18:00,89.9,67.6,29.91,West,263,5.8,5.8,48,0.00,CLR,,0.00,WeatherDisplay:10.37,2013-09-11 20:18:00,
2013-09-11 16:20:00,90.1,67.2,29.91,WSW,256,3.5,3.5,47,0.00,CLR,,0.00,WeatherDisplay:10.37,2013-09-11 20:20:00,
2013-09-11 16:21:00,90.1,67.8,29.91,South,174,1.1,1.1,48,0.00,CLR,,0.00,WeatherDisplay:10.37,2013-09-11 20:21:00,
2013-09-11 16:23:00,89.9,67.6,29.91,West,261,6.9,6.9,48,0.00,CLR,,0.00,WeatherDisplay:10.37,2013-09-11 20:23:00,
2013-09-11 16:25:00,89.9,67.6,29.90,WSW,240,5.8,5.8,48,0.00,CLR,,0.00,WeatherDisplay:10.37,2013-09-11 20:25:00,
2013-09-11 16:26:00,89.7,67.4,29.90,SSE,151,10.4,10.4,48,0.00,CLR,,0.00,WeatherDisplay:10.37,2013-09-11 20:26:00,
2013-09-11 16:28:00,89.7,68.0,29.90,SSE,161,0.0,0.0,49,0.00,CLR,,0.00,WeatherDisplay:10.37,2013-09-11 20:28:00,
2013-09-11 16:30:00,89.7,68.6,29.90,WSW,247,1.1,0.0,50,0.00,CLR,,0.00,WeatherDisplay:10.37,2013-09-11 20:30:00,
2013-09-11 16:31:00,89.7,68.0,29.90,West,278,0.0,1.0,49,0.00,CLR,,0.00,WeatherDisplay:10.37,2013-09-11 20:31:00,
2013-09-11 16:33:00,89.7,68.0,29.90,WSW,239,10.4,10.4,49,0.00,CLR,,0.00,WeatherDisplay:10.37,2013-09-11 20:33:00,
2013-09-11 16:35:00,89.7,66.8,29.90,WNW,296,3.5,3.5,47,0.00,CLR,,0.00,WeatherDisplay:10.37,2013-09-11 20:35:00,
2013-09-11 16:36:00,89.7,67.4,29.90,WSW,257,13.8,13.8,48,0.00,CLR,,0.00,WeatherDisplay:10.37,2013-09-11 20:36:00,
2013-09-11 16:38:00,89.7,66.2,29.90,WSW,246,4.6,4.6,46,0.00,CLR,,0.00,WeatherDisplay:10.37,2013-09-11 20:38:00,
2013-09-11 16:40:00,89.7,65.5,29.91,SW,236,11.5,11.5,45,0.00,CLR,,0.00,WeatherDisplay:10.37,2013-09-11 20:40:00,
2013-09-11 16:41:00,89.7,65.5,29.90,SW,230,11.5,11.5,45,0.00,CLR,,0.00,WeatherDisplay:10.37,2013-09-11 20:41:00,
2013-09-11 16:44:00,89.5,66.6,29.90,SSE,158,0.0,0.0,47,0.00,CLR,,0.00,WeatherDisplay:10.37,2013-09-11 20:44:00,
2013-09-11 16:45:00,89.5,66.6,29.90,SW,233,2.0,0.0,47,0.00,CLR,,0.00,WeatherDisplay:10.37,2013-09-11 20:45:00,
2013-09-11 16:46:00,89.7,66.8,29.90,WSW,256,5.8,5.8,47,0.00,CLR,,0.00,WeatherDisplay:10.37,2013-09-11 20:46:00,
2013-09-11 16:50:00,89.7,66.8,29.90,West,281,2.3,2.3,47,0.00,CLR,,0.00,WeatherDisplay:10.37,2013-09-11 20:50:00,
2013-09-11 16:51:00,89.7,66.8,29.90,West,260,6.0,6.0,47,0.00,CLR,,0.00,WeatherDisplay:10.37,2013-09-11 20:51:00,
2013-09-11 16:55:00,90.1,67.2,29.90,West,268,8.1,8.1,47,0.00,CLR,,0.00,WeatherDisplay:10.37,2013-09-11 20:55:00,
2013-09-11 16:56:00,90.1,67.2,29.90,West,268,0.0,0.0,47,0.00,CLR,,0.00,WeatherDisplay:10.37,2013-09-11 20:56:00,
2013-09-11 16:57:00,90.3,67.3,29.90,WSW,257,2.3,2.3,47,0.00,CLR,,0.00,WeatherDisplay:10.37,2013-09-11 20:57:00,
2013-09-11 17:00:00,90.3,66.7,29.90,WSW,240,0.0,0.0,46,0.00,CLR,,0.00,WeatherDisplay:10.37,2013-09-11 21:00:00,
2013-09-11 17:01:00,90.5,66.9,29.90,WSW,244,2.3,2.3,46,0.00,CLR,,0.00,WeatherDisplay:10.37,2013-09-11 21:01:00,
2013-09-11 17:02:00,90.5,66.9,29.90,WSW,244,2.3,0.0,46,0.00,CLR,,0.00,WeatherDisplay:10.37,2013-09-11 21:02:00,
2013-09-11 17:03:00,90.5,67.5,29.90,WSW,244,0.0,0.0,47,0.00,CLR,,0.00,WeatherDisplay:10.37,2013-09-11 21:03:00,
2013-09-11 17:05:00,90.7,67.7,29.90,SSE,155,0.0,0.3,47,0.00,CLR,,0.00,WeatherDisplay:10.37,2013-09-11 21:05:00,
2013-09-11 17:06:00,90.5,67.5,29.90,WSW,253,2.3,2.8,47,0.00,CLR,,0.00,WeatherDisplay:10.37,2013-09-11 21:06:00,
2013-09-11 17:07:00,90.5,66.9,29.90,WSW,257,11.5,11.5,46,0.00,CLR,,0.00,WeatherDisplay:10.37,2013-09-11 21:07:00,
2013-09-11 17:08:00,90.3,67.3,29.90,SSE,167,3.5,3.5,47,0.00,CLR,,0.00,WeatherDisplay:10.37,2013-09-11 21:08:00,
2013-09-11 17:11:00,89.9,67.6,29.90,West,265,5.0,5.0,48,0.00,CLR,,0.00,WeatherDisplay:10.37,2013-09-11 21:11:00,
2013-09-11 17:12:00,89.9,67.0,29.90,West,267,6.9,6.9,47,0.00,CLR,,0.00,WeatherDisplay:10.37,2013-09-11 21:12:00,
2013-09-11 17:13:00,89.7,66.8,29.90,West,275,5.8,5.8,47,0.00,CLR,,0.00,WeatherDisplay:10.37,2013-09-11 21:13:00,
2013-09-11 17:14:00,89.7,67.4,29.90,West,274,2.3,2.3,48,0.00,CLR,,0.00,WeatherDisplay:10.37,2013-09-11 21:14:00,
2013-09-11 17:16:00,89.9,67.6,29.90,West,272,0.0,1.2,48,0.00,CLR,,0.00,WeatherDisplay:10.37,2013-09-11 21:16:00,
2013-09-11 17:17:00,89.9,67.6,29.90,West,270,4.6,4.6,48,0.00,CLR,,0.00,WeatherDisplay:10.37,2013-09-11 21:17:00,
2013-09-11 17:18:00,89.9,67.6,29.90,West,280,5.8,5.8,48,0.00,CLR,,0.00,WeatherDisplay:10.37,2013-09-11 21:18:00,
2013-09-11 17:19:00,89.9,67.0,29.90,SSW,213,5.8,5.8,47,0.00,CLR,,0.00,WeatherDisplay:10.37,2013-09-11 21:19:00,
2013-09-11 17:21:00,89.7,66.8,29.90,SW,215,5.8,0.0,47,0.00,CLR,,0.00,WeatherDisplay:10.37,2013-09-11 21:21:00,
2013-09-11 17:22:00,89.7,66.8,29.90,WSW,253,2.3,0.0,47,0.00,CLR,,0.00,WeatherDisplay:10.37,2013-09-11 21:22:00,
2013-09-11 17:23:00,89.7,66.8,29.90,West,271,1.0,0.0,47,0.00,CLR,,0.00,WeatherDisplay:10.37,2013-09-11 21:23:00,
2013-09-11 17:25:00,89.7,66.8,29.90,West,263,0.0,0.0,47,0.00,CLR,,0.00,WeatherDisplay:10.37,2013-09-11 21:25:00,
2013-09-11 17:26:00,89.7,67.4,29.90,West,263,0.0,0.0,48,0.00,CLR,,0.00,WeatherDisplay:10.37,2013-09-11 21:26:00,
2013-09-11 17:28:00,89.7,67.4,29.90,WNW,282,5.8,5.8,48,0.00,CLR,,0.00,WeatherDisplay:10.37,2013-09-11 21:28:00,
2013-09-11 17:29:00,89.7,67.4,29.90,WNW,287,3.5,3.5,48,0.00,CLR,,0.00,WeatherDisplay:10.37,2013-09-11 21:29:00,
2013-09-11 17:30:00,89.7,67.4,29.90,West,268,3.5,3.5,48,0.00,CLR,,0.00,WeatherDisplay:10.37,2013-09-11 21:30:00,
2013-09-11 17:31:00,89.7,67.4,29.90,West,268,3.5,3.5,48,0.00,CLR,,0.00,WeatherDisplay:10.37,2013-09-11 21:31:00,
2013-09-11 17:33:00,89.7,68.6,29.90,SW,233,3.5,3.5,50,0.00,CLR,,0.00,WeatherDisplay:10.37,2013-09-11 21:33:00,
2013-09-11 17:34:00,89.7,68.0,29.89,West,267,3.5,3.5,49,0.00,CLR,,0.00,WeatherDisplay:10.37,2013-09-11 21:34:00,
2013-09-11 17:35:00,89.7,68.0,29.90,WSW,257,6.0,6.0,49,0.00,CLR,,0.00,WeatherDisplay:10.37,2013-09-11 21:35:00,
2013-09-11 17:36:00,89.7,68.0,29.90,West,280,5.8,5.8,49,0.00,CLR,,0.00,WeatherDisplay:10.37,2013-09-11 21:36:00,
2013-09-11 17:39:00,89.5,69.0,29.90,South,181,0.0,0.0,51,0.00,CLR,,0.00,WeatherDisplay:10.37,2013-09-11 21:39:00,
2013-09-11 17:41:00,89.3,68.2,29.90,West,267,4.6,4.6,50,0.00,CLR,,0.00,WeatherDisplay:10.37,2013-09-11 21:41:00,
2013-09-11 17:44:00,89.0,68.5,29.90,WSW,248,1.1,0.0,51,0.00,CLR,,0.00,WeatherDisplay:10.37,2013-09-11 21:44:00,
2013-09-11 17:45:00,89.0,68.5,29.90,WNW,282,12.0,0.0,51,0.00,CLR,,0.00,WeatherDisplay:10.37,2013-09-11 21:45:00,
2013-09-11 17:46:00,88.8,67.8,29.90,SW,227,11.5,11.5,50,0.00,CLR,,0.00,WeatherDisplay:10.37,2013-09-11 21:46:00,
2013-09-11 17:47:00,89.0,68.5,29.90,SW,227,0.0,0.1,51,0.00,CLR,,0.00,WeatherDisplay:10.37,2013-09-11 21:47:00,
2013-09-11 17:49:00,89.0,68.5,29.90,SW,227,0.0,0.0,51,0.00,CLR,,0.00,WeatherDisplay:10.37,2013-09-11 21:49:00,
2013-09-11 17:50:00,89.0,68.5,29.91,SW,227,0.0,0.0,51,0.00,CLR,,0.00,WeatherDisplay:10.37,2013-09-11 21:50:00,
2013-09-11 17:51:00,89.0,67.9,29.91,WSW,257,5.8,5.8,50,0.00,CLR,,0.00,WeatherDisplay:10.37,2013-09-11 21:51:00,
2013-09-11 17:54:00,89.0,69.1,29.91,SSW,210,0.0,0.0,52,0.00,CLR,,0.00,WeatherDisplay:10.37,2013-09-11 21:54:00,
2013-09-11 17:55:00,88.8,68.9,29.91,SSW,210,0.0,0.0,52,0.00,CLR,,0.00,WeatherDisplay:10.37,2013-09-11 21:55:00,
2013-09-11 17:56:00,88.8,68.9,29.91,SSW,210,0.0,0.0,52,0.00,CLR,,0.00,WeatherDisplay:10.37,2013-09-11 21:56:00,
2013-09-11 17:57:00,88.8,68.9,29.91,SSW,210,0.0,0.0,52,0.00,CLR,,0.00,WeatherDisplay:10.37,2013-09-11 21:57:00,
2013-09-11 17:59:00,88.6,68.7,29.91,WSW,247,1.1,1.1,52,0.00,CLR,,0.00,WeatherDisplay:10.37,2013-09-11 21:59:00,
2013-09-11 18:00:00,88.4,68.5,29.91,WSW,247,2.3,0.0,52,0.00,CLR,,0.00,WeatherDisplay:10.37,2013-09-11 22:00:00,
2013-09-11 18:01:00,88.4,68.5,29.91,WSW,244,1.1,0.0,52,0.00,CLR,,0.00,WeatherDisplay:10.37,2013-09-11 22:01:00,
2013-09-11 18:03:00,88.2,68.9,29.91,WSW,244,0.0,0.0,53,0.00,CLR,,0.00,WeatherDisplay:10.37,2013-09-11 22:03:00,
2013-09-11 18:04:00,88.2,68.9,29.91,SSW,198,0.0,0.0,53,0.00,CLR,,0.00,WeatherDisplay:10.37,2013-09-11 22:04:00,
2013-09-11 18:05:00,88.2,68.9,29.91,SSW,199,1.1,1.1,53,0.00,CLR,,0.00,WeatherDisplay:10.37,2013-09-11 22:05:00,
2013-09-11 18:06:00,88.0,68.7,29.92,SSW,199,1.1,0.0,53,0.00,CLR,,0.00,WeatherDisplay:10.37,2013-09-11 22:06:00,
2013-09-11 18:09:00,87.8,69.1,29.92,SSW,193,2.3,2.3,54,0.00,CLR,,0.00,WeatherDisplay:10.37,2013-09-11 22:09:00,
2013-09-11 18:10:00,87.8,69.6,29.92,SSW,193,0.0,0.0,55,0.00,CLR,,0.00,WeatherDisplay:10.37,2013-09-11 22:10:00,
2013-09-11 18:11:00,87.8,69.6,29.92,SSW,193,0.0,0.0,55,0.00,CLR,,0.00,WeatherDisplay:10.37,2013-09-11 22:11:00,
2013-09-11 18:14:00,87.6,70.0,29.92,SSW,213,2.3,2.3,56,0.00,CLR,,0.00,WeatherDisplay:10.37,2013-09-11 22:14:00,
2013-09-11 18:15:00,87.4,69.8,29.92,SSW,212,1.1,1.1,56,0.00,CLR,,0.00,WeatherDisplay:10.37,2013-09-11 22:15:00,
2013-09-11 18:16:00,87.4,69.8,29.92,SSW,212,0.0,0.0,56,0.00,CLR,,0.00,WeatherDisplay:10.37,2013-09-11 22:16:00,
2013-09-11 18:17:00,87.2,69.6,29.92,SSW,212,0.0,0.0,56,0.00,CLR,,0.00,WeatherDisplay:10.37,2013-09-11 22:17:00,
2013-09-11 18:19:00,86.7,69.6,29.92,South,186,3.5,0.0,57,0.00,CLR,,0.00,WeatherDisplay:10.37,2013-09-11 22:19:00,
2013-09-11 18:20:00,86.7,69.6,29.92,South,186,0.0,0.0,57,0.00,CLR,,0.00,WeatherDisplay:10.37,2013-09-11 22:20:00,
2013-09-11 18:21:00,86.5,69.5,29.92,South,186,0.0,0.0,57,0.00,CLR,,0.00,WeatherDisplay:10.37,2013-09-11 22:21:00,
2013-09-11 18:22:00,86.5,70.0,29.92,South,186,0.0,0.0,58,0.00,CLR,,0.00,WeatherDisplay:10.37,2013-09-11 22:22:00,
2013-09-11 18:23:00,86.3,69.8,29.92,South,186,0.0,0.1,58,0.00,CLR,,0.00,WeatherDisplay:10.37,2013-09-11 22:23:00,
2013-09-11 18:25:00,86.1,70.6,29.92,South,186,0.0,0.0,60,0.00,CLR,,0.00,WeatherDisplay:10.37,2013-09-11 22:25:00,
2013-09-11 18:26:00,85.9,70.4,29.92,South,186,1.1,0.0,60,0.00,CLR,,0.00,WeatherDisplay:10.37,2013-09-11 22:26:00,
2013-09-11 18:27:00,85.9,70.4,29.92,South,186,0.0,0.0,60,0.00,CLR,,0.00,WeatherDisplay:10.37,2013-09-11 22:27:00,
2013-09-11 18:28:00,85.7,70.2,29.92,South,184,2.3,2.3,60,0.00,CLR,,0.00,WeatherDisplay:10.37,2013-09-11 22:28:00,
2013-09-11 18:30:00,85.5,70.0,29.92,SSE,165,0.0,0.0,60,0.00,CLR,,0.00,WeatherDisplay:10.37,2013-09-11 22:30:00,
2013-09-11 18:32:00,85.5,70.0,29.92,South,171,6.9,6.9,60,0.00,CLR,,0.00,WeatherDisplay:10.37,2013-09-11 22:32:00,
2013-09-11 18:33:00,85.3,70.3,29.92,South,171,2.3,2.3,61,0.00,CLR,,0.00,WeatherDisplay:10.37,2013-09-11 22:33:00,
2013-09-11 18:34:00,85.3,70.3,29.92,South,171,1.1,1.1,61,0.00,CLR,,0.00,WeatherDisplay:10.37,2013-09-11 22:34:00,
2013-09-11 18:35:00,85.1,70.1,29.92,South,172,0.0,0.0,61,0.00,CLR,,0.00,WeatherDisplay:10.37,2013-09-11 22:35:00,
2013-09-11 18:37:00,85.1,70.1,29.92,SSE,168,0.0,0.0,61,0.00,CLR,,0.00,WeatherDisplay:10.37,2013-09-11 22:37:00,
2013-09-11 18:38:00,85.1,70.1,29.91,SSE,168,0.0,0.0,61,0.00,CLR,,0.00,WeatherDisplay:10.37,2013-09-11 22:38:00,
2013-09-11 18:39:00,85.1,70.1,29.91,SSE,158,0.0,0.0,61,0.00,CLR,,0.00,WeatherDisplay:10.37,2013-09-11 22:39:00,
2013-09-11 18:41:00,85.1,70.6,29.91,SSE,158,0.0,0.0,62,0.00,CLR,,0.00,WeatherDisplay:10.37,2013-09-11 22:41:00,
2013-09-11 18:42:00,85.1,70.6,29.91,SSE,158,0.0,0.0,62,0.00,CLR,,0.00,WeatherDisplay:10.37,2013-09-11 22:42:00,
2013-09-11 18:43:00,85.1,70.6,29.91,SSE,158,0.0,0.0,62,0.00,CLR,,0.00,WeatherDisplay:10.37,2013-09-11 22:43:00,
2013-09-11 18:44:00,85.1,70.1,29.91,SSE,158,0.0,0.0,61,0.00,CLR,,0.00,WeatherDisplay:10.37,2013-09-11 22:44:00,
2013-09-11 18:45:00,85.1,70.1,29.91,SSE,160,0.0,0.0,61,0.00,CLR,,0.00,WeatherDisplay:10.37,2013-09-11 22:45:00,
2013-09-11 18:46:00,85.1,70.1,29.91,SSE,158,2.3,2.3,61,0.00,CLR,,0.00,WeatherDisplay:10.37,2013-09-11 22:46:00,
2013-09-11 18:47:00,85.1,70.1,29.91,SSE,158,2.3,0.0,61,0.00,CLR,,0.00,WeatherDisplay:10.37,2013-09-11 22:47:00,
2013-09-11 18:48:00,85.1,70.1,29.91,SSE,154,0.0,0.2,61,0.00,CLR,,0.00,WeatherDisplay:10.37,2013-09-11 22:48:00,
2013-09-11 18:49:00,85.1,70.1,29.91,SSE,154,2.3,0.0,61,0.00,CLR,,0.00,WeatherDisplay:10.37,2013-09-11 22:49:00,
2013-09-11 18:50:00,85.1,70.1,29.91,SSE,154,0.0,0.0,61,0.00,CLR,,0.00,WeatherDisplay:10.37,2013-09-11 22:50:00,
2013-09-11 18:52:00,85.1,70.6,29.91,SSE,154,0.0,0.0,62,0.00,CLR,,0.00,WeatherDisplay:10.37,2013-09-11 22:52:00,
2013-09-11 18:53:00,85.1,70.6,29.91,SSE,154,0.0,0.0,62,0.00,CLR,,0.00,WeatherDisplay:10.37,2013-09-11 22:53:00,
2013-09-11 18:55:00,85.1,70.6,29.91,SSE,154,0.0,0.0,62,0.00,CLR,,0.00,WeatherDisplay:10.37,2013-09-11 22:55:00,
2013-09-11 18:57:00,84.9,70.4,29.90,SSE,154,0.0,0.0,62,0.00,CLR,,0.00,WeatherDisplay:10.37,2013-09-11 22:57:00,
2013-09-11 18:58:00,84.9,70.9,29.90,SSE,154,0.0,0.0,63,0.00,CLR,,0.00,WeatherDisplay:10.37,2013-09-11 22:58:00,
2013-09-11 19:00:00,84.9,70.4,29.90,SSE,155,0.0,0.0,62,0.00,CLR,,0.00,WeatherDisplay:10.37,2013-09-11 23:00:00,
2013-09-11 19:01:00,84.9,70.4,29.90,SSE,154,0.0,0.0,62,0.00,CLR,,0.00,WeatherDisplay:10.37,2013-09-11 23:01:00,
2013-09-11 19:02:00,84.9,70.4,29.90,SSE,154,0.0,0.0,62,0.00,CLR,,0.00,WeatherDisplay:10.37,2013-09-11 23:02:00,
2013-09-11 19:03:00,84.7,70.2,29.90,SSE,154,0.0,0.0,62,0.00,CLR,,0.00,WeatherDisplay:10.37,2013-09-11 23:03:00,
2013-09-11 19:04:00,84.7,70.2,29.90,SSE,155,0.0,0.0,62,0.00,CLR,,0.00,WeatherDisplay:10.37,2013-09-11 23:04:00,
2013-09-11 19:06:00,84.5,70.5,29.89,SSE,154,0.0,0.0,63,0.00,CLR,,0.00,WeatherDisplay:10.37,2013-09-11 23:06:00,
2013-09-11 19:07:00,84.5,70.5,29.89,SSE,154,0.0,0.0,63,0.00,CLR,,0.00,WeatherDisplay:10.37,2013-09-11 23:07:00,
2013-09-11 19:08:00,84.5,70.5,29.89,SSE,155,0.0,0.0,63,0.00,CLR,,0.00,WeatherDisplay:10.37,2013-09-11 23:08:00,
2013-09-11 19:09:00,84.3,70.3,29.89,SSE,155,0.0,0.0,63,0.00,CLR,,0.00,WeatherDisplay:10.37,2013-09-11 23:09:00,
2013-09-11 19:12:00,84.1,70.6,29.89,SSE,155,0.0,0.0,64,0.00,CLR,,0.00,WeatherDisplay:10.37,2013-09-11 23:12:00,
2013-09-11 19:13:00,84.1,70.6,29.89,SSE,155,0.0,0.0,64,0.00,CLR,,0.00,WeatherDisplay:10.37,2013-09-11 23:13:00,
2013-09-11 19:15:00,84.0,70.5,29.89,SSE,155,0.0,0.0,64,0.00,CLR,,0.00,WeatherDisplay:10.37,2013-09-11 23:15:00,
2013-09-11 19:17:00,83.8,70.3,29.89,SSE,155,0.0,0.0,64,0.00,CLR,,0.00,WeatherDisplay:10.37,2013-09-11 23:17:00,
2013-09-11 19:18:00,83.8,70.8,29.89,SSE,155,0.0,0.0,65,0.00,CLR,,0.00,WeatherDisplay:10.37,2013-09-11 23:18:00,
2013-09-11 19:19:00,83.8,70.8,29.89,SSE,155,0.0,0.0,65,0.00,CLR,,0.00,WeatherDisplay:10.37,2013-09-11 23:19:00,
2013-09-11 19:21:00,83.4,70.4,29.89,SSE,155,0.0,0.0,65,0.00,CLR,,0.00,WeatherDisplay:10.37,2013-09-11 23:21:00,
2013-09-11 19:22:00,83.4,70.4,29.89,SSE,155,0.0,0.0,65,0.00,CLR,,0.00,WeatherDisplay:10.37,2013-09-11 23:22:00,
2013-09-11 19:23:00,83.4,70.4,29.89,SSE,155,0.0,0.0,65,0.00,CLR,,0.00,WeatherDisplay:10.37,2013-09-11 23:23:00,
2013-09-11 19:24:00,83.4,70.4,29.89,SSE,155,0.0,0.0,65,0.00,CLR,,0.00,WeatherDisplay:10.37,2013-09-11 23:24:00,
2013-09-11 19:26:00,83.0,70.0,29.88,SSE,150,3.5,3.5,65,0.00,CLR,,0.00,WeatherDisplay:10.37,2013-09-11 23:26:00,
2013-09-11 19:27:00,83.0,70.0,29.88,SSE,150,3.5,3.5,65,0.00,CLR,,0.00,WeatherDisplay:10.37,2013-09-11 23:27:00,
2013-09-11 19:28:00,83.0,70.0,29.88,SSE,150,1.1,1.1,65,0.00,CLR,,0.00,WeatherDisplay:10.37,2013-09-11 23:28:00,
2013-09-11 19:29:00,82.8,70.7,29.88,SSE,148,1.1,1.4,67,0.00,CLR,,0.00,WeatherDisplay:10.37,2013-09-11 23:29:00,
2013-09-11 19:31:00,82.6,70.5,29.88,SSE,148,0.0,0.0,67,0.00,CLR,,0.00,WeatherDisplay:10.37,2013-09-11 23:31:00,
2013-09-11 19:33:00,82.4,70.3,29.88,SSE,148,1.1,1.1,67,0.00,CLR,,0.00,WeatherDisplay:10.37,2013-09-11 23:33:00,
2013-09-11 19:34:00,82.4,70.3,29.88,SSE,148,0.0,0.0,67,0.00,CLR,,0.00,WeatherDisplay:10.37,2013-09-11 23:34:00,
2013-09-11 19:36:00,82.2,70.6,29.88,SSE,148,0.0,0.4,68,0.00,CLR,,0.00,WeatherDisplay:10.37,2013-09-11 23:36:00,
2013-09-11 19:38:00,82.2,70.6,29.88,SSE,148,0.0,0.0,68,0.00,CLR,,0.00,WeatherDisplay:10.37,2013-09-11 23:38:00,
2013-09-11 19:39:00,82.2,70.6,29.88,SSE,148,0.0,0.0,68,0.00,CLR,,0.00,WeatherDisplay:10.37,2013-09-11 23:39:00,
2013-09-11 19:40:00,82.0,70.4,29.88,SSE,160,1.0,0.0,68,0.00,CLR,,0.00,WeatherDisplay:10.37,2013-09-11 23:40:00,
2013-09-11 19:42:00,81.8,70.6,29.88,SSE,160,1.0,1.0,69,0.00,CLR,,0.00,WeatherDisplay:10.37,2013-09-11 23:42:00,
2013-09-11 19:43:00,81.8,70.6,29.88,SSE,160,2.3,2.3,69,0.00,CLR,,0.00,WeatherDisplay:10.37,2013-09-11 23:43:00,
2013-09-11 19:44:00,81.8,70.6,29.88,SSE,160,2.3,0.0,69,0.00,CLR,,0.00,WeatherDisplay:10.37,2013-09-11 23:44:00,
2013-09-11 19:46:00,81.6,70.4,29.88,SSE,160,0.0,0.0,69,0.00,CLR,,0.00,WeatherDisplay:10.37,2013-09-11 23:46:00,
2013-09-11 19:47:00,81.6,70.4,29.88,SSE,160,0.0,0.0,69,0.00,CLR,,0.00,WeatherDisplay:10.37,2013-09-11 23:47:00,
2013-09-11 19:48:00,81.6,70.4,29.88,SSE,160,0.0,0.0,69,0.00,CLR,,0.00,WeatherDisplay:10.37,2013-09-11 23:48:00,
2013-09-11 19:51:00,81.4,70.2,29.88,SSE,160,0.0,0.0,69,0.00,CLR,,0.00,WeatherDisplay:10.37,2013-09-11 23:51:00,
2013-09-11 19:52:00,81.4,70.2,29.88,SSE,160,0.0,0.0,69,0.00,CLR,,0.00,WeatherDisplay:10.37,2013-09-11 23:52:00,
2013-09-11 19:53:00,81.4,70.2,29.88,SSE,160,1.0,1.0,69,0.00,CLR,,0.00,WeatherDisplay:10.37,2013-09-11 23:53:00,
2013-09-11 19:56:00,81.4,70.2,29.88,SSE,161,2.3,2.3,69,0.00,CLR,,0.00,WeatherDisplay:10.37,2013-09-11 23:56:00,
2013-09-11 19:57:00,81.4,70.2,29.88,SSE,161,2.3,0.0,69,0.00,CLR,,0.00,WeatherDisplay:10.37,2013-09-11 23:57:00,
2013-09-11 19:58:00,81.2,70.1,29.88,SSE,161,0.0,0.0,69,0.00,CLR,,0.00,WeatherDisplay:10.37,2013-09-11 23:58:00,
2013-09-11 19:59:00,81.2,70.1,29.88,SSE,161,0.0,0.0,69,0.00,CLR,,0.00,WeatherDisplay:10.37,2013-09-11 23:59:00,
2013-09-11 20:01:00,81.2,70.1,29.88,SSE,161,0.0,0.0,69,0.00,CLR,,0.00,WeatherDisplay:10.37,2013-09-12 00:01:00,
2013-09-11 20:02:00,81.2,70.1,29.88,SSE,161,0.0,0.0,69,0.00,CLR,,0.00,WeatherDisplay:10.37,2013-09-12 00:02:00,
2013-09-11 20:03:00,81.2,70.1,29.88,SSE,161,0.0,0.0,69,0.00,CLR,,0.00,WeatherDisplay:10.37,2013-09-12 00:03:00,
2013-09-11 20:04:00,81.2,70.1,29.89,SSE,161,0.0,0.0,69,0.00,CLR,,0.00,WeatherDisplay:10.37,2013-09-12 00:04:00,
2013-09-11 20:05:00,81.2,70.1,29.89,SSE,161,0.0,0.0,69,0.00,CLR,,0.00,WeatherDisplay:10.37,2013-09-12 00:05:00,
2013-09-11 20:06:00,81.2,70.1,29.88,SSE,161,0.0,0.0,69,0.00,CLR,,0.00,WeatherDisplay:10.37,2013-09-12 00:06:00,
2013-09-11 20:08:00,81.1,70.0,29.88,SSE,152,2.0,2.0,69,0.00,CLR,,0.00,WeatherDisplay:10.37,2013-09-12 00:08:00,
2013-09-11 20:09:00,81.1,70.0,29.88,SSE,152,5.8,5.8,69,0.00,CLR,,0.00,WeatherDisplay:10.37,2013-09-12 00:09:00,
2013-09-11 20:11:00,81.1,70.0,29.88,SSE,152,0.0,0.0,69,0.00,CLR,,0.00,WeatherDisplay:10.37,2013-09-12 00:11:00,
2013-09-11 20:13:00,81.1,70.0,29.88,SSE,151,0.0,0.0,69,0.00,CLR,,0.00,WeatherDisplay:10.37,2013-09-12 00:13:00,
2013-09-11 20:14:00,81.1,70.0,29.88,SSE,151,1.1,0.0,69,0.00,CLR,,0.00,WeatherDisplay:10.37,2013-09-12 00:14:00,
2013-09-11 20:16:00,80.9,69.8,29.88,SSE,157,3.5,3.5,69,0.00,CLR,,0.00,WeatherDisplay:10.37,2013-09-12 00:16:00,
2013-09-11 20:18:00,80.9,69.8,29.88,SSE,155,1.1,1.1,69,0.00,CLR,,0.00,WeatherDisplay:10.37,2013-09-12 00:18:00,
2013-09-11 20:19:00,80.9,70.2,29.88,South,178,3.5,3.5,70,0.00,CLR,,0.00,WeatherDisplay:10.37,2013-09-12 00:19:00,
2013-09-11 20:22:00,80.7,70.0,29.88,SSE,151,3.5,3.5,70,0.00,CLR,,0.00,WeatherDisplay:10.37,2013-09-12 00:22:00,
2013-09-11 20:24:00,80.7,70.0,29.88,SSE,164,1.1,1.1,70,0.00,CLR,,0.00,WeatherDisplay:10.37,2013-09-12 00:24:00,
2013-09-11 20:27:00,80.5,70.2,29.89,SSE,152,6.9,6.9,71,0.00,CLR,,0.00,WeatherDisplay:10.37,2013-09-12 00:27:00,
2013-09-11 20:29:00,80.3,70.4,29.89,SSE,152,6.9,6.9,72,0.00,CLR,,0.00,WeatherDisplay:10.37,2013-09-12 00:29:00,
2013-09-11 20:31:00,80.1,70.3,29.89,SSE,154,0.0,0.0,72,0.00,CLR,,0.00,WeatherDisplay:10.37,2013-09-12 00:31:00,
2013-09-11 20:32:00,80.1,70.7,29.90,SSE,161,2.0,2.0,73,0.00,CLR,,0.00,WeatherDisplay:10.37,2013-09-12 00:32:00,
2013-09-11 20:33:00,80.1,70.7,29.90,SSE,160,3.5,3.5,73,0.00,CLR,,0.00,WeatherDisplay:10.37,2013-09-12 00:33:00,
2013-09-11 20:34:00,79.9,70.5,29.90,SSE,150,3.5,3.5,73,0.00,CLR,,0.00,WeatherDisplay:10.37,2013-09-12 00:34:00,
2013-09-11 20:36:00,79.8,70.4,29.90,SSE,152,8.1,8.1,73,0.00,CLR,,0.00,WeatherDisplay:10.37,2013-09-12 00:36:00,
2013-09-11 20:38:00,79.8,70.4,29.90,SE,140,6.0,6.0,73,0.00,CLR,,0.00,WeatherDisplay:10.37,2013-09-12 00:38:00,
2013-09-11 20:39:00,79.8,70.4,29.90,SSE,167,5.8,5.8,73,0.00,CLR,,0.00,WeatherDisplay:10.37,2013-09-12 00:39:00,
2013-09-11 20:42:00,79.6,70.6,29.90,SSE,157,4.6,4.6,74,0.00,CLR,,0.00,WeatherDisplay:10.37,2013-09-12 00:42:00,
2013-09-11 20:43:00,79.6,70.6,29.90,SSE,151,3.5,3.5,74,0.00,CLR,,0.00,WeatherDisplay:10.37,2013-09-12 00:43:00,
2013-09-11 20:44:00,79.6,70.6,29.90,SE,144,6.9,6.9,74,0.00,CLR,,0.00,WeatherDisplay:10.37,2013-09-12 00:44:00,
2013-09-11 20:47:00,79.4,70.4,29.90,SSE,151,1.0,1.0,74,0.00,CLR,,0.00,WeatherDisplay:10.37,2013-09-12 00:47:00,
2013-09-11 20:49:00,79.2,70.6,29.91,SSE,154,5.8,5.8,75,0.00,CLR,,0.00,WeatherDisplay:10.37,2013-09-12 00:49:00,
2013-09-11 20:50:00,79.2,70.6,29.91,SE,138,8.0,8.0,75,0.00,CLR,,0.00,WeatherDisplay:10.37,2013-09-12 00:50:00,
2013-09-11 20:52:00,79.2,70.6,29.91,SSE,148,5.8,0.0,75,0.00,CLR,,0.00,WeatherDisplay:10.37,2013-09-12 00:52:00,
2013-09-11 20:54:00,79.0,70.4,29.91,SE,145,8.1,0.0,75,0.00,CLR,,0.00,WeatherDisplay:10.37,2013-09-12 00:54:00,
2013-09-11 20:55:00,79.0,70.4,29.91,SE,145,6.9,6.9,75,0.00,CLR,,0.00,WeatherDisplay:10.37,2013-09-12 00:55:00,
2013-09-11 20:58:00,78.8,70.2,29.92,SSE,147,4.6,4.6,75,0.00,CLR,,0.00,WeatherDisplay:10.37,2013-09-12 00:58:00,
2013-09-11 21:00:00,78.8,70.2,29.92,NW,322,4.6,4.6,75,0.00,CLR,,0.00,WeatherDisplay:10.37,2013-09-12 01:00:00,
2013-09-11 21:01:00,78.8,70.2,29.92,South,189,0.0,0.0,75,0.00,CLR,,0.00,WeatherDisplay:10.37,2013-09-12 01:01:00,
2013-09-11 21:03:00,78.6,70.0,29.92,SSE,157,3.5,3.5,75,0.00,CLR,,0.00,WeatherDisplay:10.37,2013-09-12 01:03:00,
2013-09-11 21:05:00,78.6,70.0,29.92,SSE,148,6.9,6.9,75,0.00,CLR,,0.00,WeatherDisplay:10.37,2013-09-12 01:05:00,
2013-09-11 21:06:00,78.6,70.0,29.92,SSE,147,13.8,13.8,75,0.00,CLR,,0.00,WeatherDisplay:10.37,2013-09-12 01:06:00,
2013-09-11 21:08:00,78.6,70.0,29.92,SSE,152,3.5,3.5,75,0.00,CLR,,0.00,WeatherDisplay:10.37,2013-09-12 01:08:00,
2013-09-11 21:10:00,78.6,70.4,29.92,SSE,165,11.5,11.5,76,0.00,CLR,,0.00,WeatherDisplay:10.37,2013-09-12 01:10:00,
2013-09-11 21:11:00,78.5,70.3,29.92,SSE,152,0.0,1.5,76,0.00,CLR,,0.00,WeatherDisplay:10.37,2013-09-12 01:11:00,
2013-09-11 21:13:00,78.5,70.3,29.92,SSE,148,8.1,8.1,76,0.00,CLR,,0.00,WeatherDisplay:10.37,2013-09-12 01:13:00,
2013-09-11 21:15:00,78.5,70.3,29.92,SSE,148,6.9,6.9,76,0.00,CLR,,0.00,WeatherDisplay:10.37,2013-09-12 01:15:00,
2013-09-11 21:16:00,78.3,70.1,29.93,SSE,162,0.0,0.0,76,0.00,CLR,,0.00,WeatherDisplay:10.37,2013-09-12 01:16:00,
2013-09-11 21:17:00,78.3,70.1,29.93,SSE,147,7.0,7.0,76,0.00,CLR,,0.00,WeatherDisplay:10.37,2013-09-12 01:17:00,
2013-09-11 21:19:00,78.3,70.1,29.93,SSE,155,3.5,3.5,76,0.00,CLR,,0.00,WeatherDisplay:10.37,2013-09-12 01:19:00,
2013-09-11 21:20:00,78.3,70.1,29.93,SSE,157,6.9,6.9,76,0.00,CLR,,0.00,WeatherDisplay:10.37,2013-09-12 01:20:00,
2013-09-11 21:21:00,78.3,70.1,29.93,SE,141,11.0,11.0,76,0.00,CLR,,0.00,WeatherDisplay:10.37,2013-09-12 01:21:00,
2013-09-11 21:22:00,78.3,70.1,29.93,SE,127,11.5,11.5,76,0.00,CLR,,0.00,WeatherDisplay:10.37,2013-09-12 01:22:00,
2013-09-11 21:25:00,78.3,70.1,29.92,SSE,155,8.1,8.1,76,0.00,CLR,,0.00,WeatherDisplay:10.37,2013-09-12 01:25:00,
2013-09-11 21:27:00,78.3,70.1,29.92,SSE,158,6.9,0.0,76,0.00,CLR,,0.00,WeatherDisplay:10.37,2013-09-12 01:27:00,
2013-09-11 21:30:00,78.5,69.9,29.92,SSE,161,8.1,8.1,75,0.00,CLR,,0.00,WeatherDisplay:10.37,2013-09-12 01:30:00,
2013-09-11 21:31:00,78.5,69.9,29.92,SSE,155,6.9,6.9,75,0.00,CLR,,0.00,WeatherDisplay:10.37,2013-09-12 01:31:00,
2013-09-11 21:32:00,78.3,69.7,29.92,SSE,160,9.2,9.2,75,0.00,CLR,,0.00,WeatherDisplay:10.37,2013-09-12 01:32:00,
2013-09-11 21:35:00,78.3,69.7,29.92,SSE,161,9.2,9.2,75,0.00,CLR,,0.00,WeatherDisplay:10.37,2013-09-12 01:35:00,
2013-09-11 21:36:00,78.3,69.7,29.92,SSE,155,9.2,0.0,75,0.00,CLR,,0.00,WeatherDisplay:10.37,2013-09-12 01:36:00,
2013-09-11 21:37:00,78.3,69.7,29.92,SSE,165,8.1,8.1,75,0.00,CLR,,0.00,WeatherDisplay:10.37,2013-09-12 01:37:00,
2013-09-11 21:38:00,78.3,69.7,29.92,SSE,147,8.1,8.1,75,0.00,CLR,,0.00,WeatherDisplay:10.37,2013-09-12 01:38:00,
2013-09-11 21:40:00,78.1,69.9,29.92,SSE,147,6.9,6.9,76,0.00,CLR,,0.00,WeatherDisplay:10.37,2013-09-12 01:40:00,
2013-09-11 21:41:00,78.1,69.9,29.92,SSE,168,8.1,8.1,76,0.00,CLR,,0.00,WeatherDisplay:10.37,2013-09-12 01:41:00,
2013-09-11 21:42:00,78.1,69.9,29.92,SSE,155,8.1,8.1,76,0.00,CLR,,0.00,WeatherDisplay:10.37,2013-09-12 01:42:00,
2013-09-11 21:43:00,78.1,69.9,29.92,SSE,150,11.5,11.5,76,0.00,CLR,,0.00,WeatherDisplay:10.37,2013-09-12 01:43:00,
2013-09-11 21:45:00,77.9,69.7,29.92,South,175,9.2,9.2,76,0.00,CLR,,0.00,WeatherDisplay:10.37,2013-09-12 01:45:00,
2013-09-11 21:46:00,77.9,69.7,29.92,SSW,192,0.0,0.0,76,0.00,CLR,,0.00,WeatherDisplay:10.37,2013-09-12 01:46:00,
2013-09-11 21:48:00,77.7,69.5,29.92,South,176,9.2,9.2,76,0.00,CLR,,0.00,WeatherDisplay:10.37,2013-09-12 01:48:00,
2013-09-11 21:49:00,77.7,69.5,29.91,SSE,151,9.2,9.2,76,0.00,CLR,,0.00,WeatherDisplay:10.37,2013-09-12 01:49:00,
2013-09-11 21:51:00,77.7,69.5,29.91,South,179,11.5,11.5,76,0.00,CLR,,0.00,WeatherDisplay:10.37,2013-09-12 01:51:00,
2013-09-11 21:53:00,77.4,69.6,29.91,SSE,162,9.2,9.2,77,0.00,CLR,,0.00,WeatherDisplay:10.37,2013-09-12 01:53:00,
2013-09-11 21:54:00,77.4,69.6,29.91,SE,143,9.2,9.2,77,0.00,CLR,,0.00,WeatherDisplay:10.37,2013-09-12 01:54:00,
2013-09-11 21:56:00,77.4,70.0,29.91,SE,138,9.2,9.2,78,0.00,CLR,,0.00,WeatherDisplay:10.37,2013-09-12 01:56:00,
2013-09-11 21:59:00,77.2,69.8,29.91,SSE,168,11.5,11.5,78,0.00,CLR,,0.00,WeatherDisplay:10.37,2013-09-12 01:59:00,
2013-09-11 22:00:00,77.0,69.6,29.91,SE,127,11.5,11.5,78,0.00,CLR,,0.00,WeatherDisplay:10.37,2013-09-12 02:00:00,
2013-09-11 22:01:00,77.0,69.6,29.91,SSE,150,11.5,11.5,78,0.00,CLR,,0.00,WeatherDisplay:10.37,2013-09-12 02:01:00,
2013-09-11 22:02:00,77.0,69.6,29.91,SSE,152,11.5,11.5,78,0.00,CLR,,0.00,WeatherDisplay:10.37,2013-09-12 02:02:00,
2013-09-11 22:04:00,76.8,69.8,29.91,SE,144,12.7,12.7,79,0.00,CLR,,0.00,WeatherDisplay:10.37,2013-09-12 02:04:00,
2013-09-11 22:05:00,76.8,69.8,29.91,SE,144,12.7,12.7,79,0.00,CLR,,0.00,WeatherDisplay:10.37,2013-09-12 02:05:00,
2013-09-11 22:06:00,76.8,69.8,29.91,SE,144,0.0,0.0,79,0.00,CLR,,0.00,WeatherDisplay:10.37,2013-09-12 02:06:00,
2013-09-11 22:07:00,77.0,70.0,29.91,SSE,155,8.1,8.1,79,0.00,CLR,,0.00,WeatherDisplay:10.37,2013-09-12 02:07:00,
2013-09-11 22:10:00,77.0,69.6,29.91,SE,137,10.4,10.4,78,0.00,CLR,,0.00,WeatherDisplay:10.37,2013-09-12 02:10:00,
2013-09-11 22:11:00,77.0,69.6,29.91,SE,140,9.2,9.2,78,0.00,CLR,,0.00,WeatherDisplay:10.37,2013-09-12 02:11:00,
2013-09-11 22:12:00,77.0,69.6,29.91,South,181,4.6,4.6,78,0.00,CLR,,0.00,WeatherDisplay:10.37,2013-09-12 02:12:00,
2013-09-11 22:16:00,77.0,70.0,29.91,SSE,157,5.8,5.8,79,0.00,CLR,,0.00,WeatherDisplay:10.37,2013-09-12 02:16:00,
2013-09-11 22:17:00,76.8,69.8,29.91,SSE,151,11.0,11.0,79,0.00,CLR,,0.00,WeatherDisplay:10.37,2013-09-12 02:17:00,
2013-09-11 22:21:00,76.8,69.8,29.91,WNW,287,11.5,11.5,79,0.00,CLR,,0.00,WeatherDisplay:10.37,2013-09-12 02:21:00,
2013-09-11 22:22:00,76.8,69.8,29.91,WNW,288,2.3,0.0,79,0.00,CLR,,0.00,WeatherDisplay:10.37,2013-09-12 02:22:00,
2013-09-11 22:26:00,76.1,67.2,29.95,NNW,336,15.0,15.0,74,0.00,CLR,,0.00,WeatherDisplay:10.37,2013-09-12 02:26:00,
2013-09-11 22:27:00,75.8,66.5,29.95,NNW,342,17.3,17.3,73,0.00,CLR,,0.00,WeatherDisplay:10.37,2013-09-12 02:27:00,
2013-09-11 22:32:00,74.9,66.4,29.95,North,356,13.8,13.8,75,0.00,CLR,,0.00,WeatherDisplay:10.37,2013-09-12 02:32:00,
2013-09-11 22:33:00,74.7,66.2,29.96,NNW,337,13.8,13.8,75,0.00,CLR,,0.00,WeatherDisplay:10.37,2013-09-12 02:33:00,
2013-09-11 22:34:00,74.4,66.0,29.96,North,0,11.5,11.5,75,0.00,CLR,,0.00,WeatherDisplay:10.37,2013-09-12 02:34:00,
2013-09-11 22:37:00,74.0,66.0,29.97,North,0,11.5,11.5,76,0.00,CLR,,0.00,WeatherDisplay:10.37,2013-09-12 02:37:00,
2013-09-11 22:41:00,73.5,66.2,29.98,NNW,333,17.3,17.3,78,0.00,CLR,,0.00,WeatherDisplay:10.37,2013-09-12 02:41:00,
2013-09-11 22:42:00,73.5,66.2,29.98,North,356,20.7,20.7,78,0.00,CLR,,0.00,WeatherDisplay:10.37,2013-09-12 02:42:00,
2013-09-11 22:43:00,73.3,66.0,29.98,North,11,5.8,5.8,78,0.00,CLR,,0.00,WeatherDisplay:10.37,2013-09-12 02:43:00,
2013-09-11 22:44:00,73.3,66.0,29.98,NW,311,11.5,11.5,78,0.00,CLR,,0.00,WeatherDisplay:10.37,2013-09-12 02:44:00,
2013-09-11 22:47:00,73.0,66.1,29.98,NW,316,11.5,11.5,79,0.00,CLR,,0.00,WeatherDisplay:10.37,2013-09-12 02:47:00,
2013-09-11 22:48:00,73.0,66.5,29.98,NNW,332,1.1,1.1,80,0.00,CLR,,0.00,WeatherDisplay:10.37,2013-09-12 02:48:00,
2013-09-11 22:49:00,73.0,66.5,29.98,NW,305,1.1,0.0,80,0.00,CLR,,0.00,WeatherDisplay:10.37,2013-09-12 02:49:00,
2013-09-11 22:50:00,72.8,66.6,29.98,WNW,301,2.3,2.3,81,0.00,CLR,,0.00,WeatherDisplay:10.37,2013-09-12 02:50:00,
2013-09-11 22:52:00,72.8,66.6,29.99,NNW,328,1.1,1.1,81,0.00,CLR,,0.00,WeatherDisplay:10.37,2013-09-12 02:52:00,
2013-09-11 22:53:00,72.7,66.9,29.99,NNW,330,2.3,2.3,82,0.00,CLR,,0.00,WeatherDisplay:10.37,2013-09-12 02:53:00,
2013-09-11 22:55:00,72.5,67.0,29.99,NW,309,7.0,7.0,83,0.00,CLR,,0.00,WeatherDisplay:10.37,2013-09-12 02:55:00,
2013-09-11 22:56:00,72.3,66.8,29.99,WNW,282,11.5,11.5,83,0.00,CLR,,0.00,WeatherDisplay:10.37,2013-09-12 02:56:00,
2013-09-11 22:57:00,72.1,67.3,30.00,NW,323,4.6,4.6,85,0.00,CLR,,0.00,WeatherDisplay:10.37,2013-09-12 02:57:00,
2013-09-11 22:58:00,72.1,67.7,30.00,NW,312,1.1,1.1,86,0.01,RA,,0.01,WeatherDisplay:10.37,2013-09-12 02:58:00,
2013-09-11 23:00:00,71.8,67.7,30.00,West,260,11.5,11.5,87,0.05,RA,,0.06,WeatherDisplay:10.37,2013-09-12 03:00:00,
2013-09-11 23:01:00,71.6,68.2,29.99,NNW,333,13.8,13.8,89,0.07,RA,,0.08,WeatherDisplay:10.37,2013-09-12 03:01:00,
2013-09-11 23:02:00,71.3,67.9,29.99,NNW,328,11.5,11.5,89,0.08,RA,,0.09,WeatherDisplay:10.37,2013-09-12 03:02:00,
2013-09-11 23:03:00,71.1,68.3,29.99,West,278,11.5,11.5,91,0.11,RA,,0.11,WeatherDisplay:10.37,2013-09-12 03:03:00,
2013-09-11 23:06:00,70.6,68.5,29.98,WNW,296,11.5,11.5,93,0.26,RA,,0.26,WeatherDisplay:10.37,2013-09-12 03:06:00,
2013-09-11 23:07:00,70.1,68.6,29.98,WSW,237,11.5,11.5,95,0.29,RA,,0.31,WeatherDisplay:10.37,2013-09-12 03:07:00,
2013-09-11 23:08:00,70.1,68.9,29.98,West,261,4.6,4.6,96,0.32,RA,,0.32,WeatherDisplay:10.37,2013-09-12 03:08:00,
2013-09-11 23:11:00,69.6,68.7,29.98,NNW,335,8.1,8.1,97,0.41,RA,,0.42,WeatherDisplay:10.37,2013-09-12 03:11:00,
2013-09-11 23:12:00,69.4,68.5,29.98,WSW,258,10.4,10.4,97,0.44,RA,,0.45,WeatherDisplay:10.37,2013-09-12 03:12:00,
2013-09-11 23:13:00,69.4,68.8,29.98,West,260,4.6,4.6,98,0.46,RA,,0.46,WeatherDisplay:10.37,2013-09-12 03:13:00,
2013-09-11 23:14:00,69.4,68.8,29.98,WSW,239,6.9,6.9,98,0.47,RA,,0.47,WeatherDisplay:10.37,2013-09-12 03:14:00,
2013-09-11 23:16:00,69.3,68.7,29.97,WNW,299,1.1,1.1,98,0.51,RA,,0.52,WeatherDisplay:10.37,2013-09-12 03:16:00,
2013-09-11 23:18:00,69.3,69.0,29.97,WNW,299,0.0,0.0,99,0.53,RA,,0.53,WeatherDisplay:10.37,2013-09-12 03:18:00,
2013-09-11 23:19:00,69.3,69.0,29.96,WNW,299,0.0,0.0,99,0.53,RA,,0.53,WeatherDisplay:10.37,2013-09-12 03:19:00,
2013-09-11 23:22:00,69.3,69.0,29.96,West,272,0.0,0.0,99,0.54,RA,,0.54,WeatherDisplay:10.37,2013-09-12 03:22:00,
2013-09-11 23:23:00,69.1,68.8,29.96,West,272,0.0,0.0,99,0.55,RA,,0.55,WeatherDisplay:10.37,2013-09-12 03:23:00,
2013-09-11 23:25:00,69.1,68.8,29.95,West,272,0.0,0.0,99,0.56,RA,,0.56,WeatherDisplay:10.37,2013-09-12 03:25:00,
2013-09-11 23:28:00,68.9,68.6,29.95,West,272,0.0,0.0,99,0.61,RA,,0.61,WeatherDisplay:10.37,2013-09-12 03:28:00,
2013-09-11 23:29:00,68.9,68.6,29.95,West,272,0.0,0.0,99,0.62,RA,,0.62,WeatherDisplay:10.37,2013-09-12 03:29:00,
2013-09-11 23:30:00,68.8,68.5,29.94,West,272,0.0,0.0,99,0.63,RA,,0.63,WeatherDisplay:10.37,2013-09-12 03:30:00,
2013-09-11 23:33:00,68.6,68.3,29.95,West,272,0.0,0.0,99,0.63,RA,,0.63,WeatherDisplay:10.37,2013-09-12 03:33:00,
2013-09-11 23:35:00,68.6,68.3,29.95,West,272,0.0,0.0,99,0.63,RA,,0.63,WeatherDisplay:10.37,2013-09-12 03:35:00,
2013-09-11 23:38:00,68.4,68.1,29.94,WSW,246,0.0,0.0,99,0.63,RA,,0.63,WeatherDisplay:10.37,2013-09-12 03:38:00,
2013-09-11 23:40:00,68.6,68.6,29.93,WSW,246,0.0,0.0,100,0.63,,,0.63,WeatherDisplay:10.37,2013-09-12 03:40:00,
2013-09-11 23:43:00,68.4,68.4,29.94,WSW,246,0.0,0.0,100,0.63,CLR,,0.63,WeatherDisplay:10.37,2013-09-12 03:43:00,
2013-09-11 23:44:00,68.4,68.4,29.93,WSW,246,0.0,0.0,100,0.63,CLR,,0.63,WeatherDisplay:10.37,2013-09-12 03:44:00,
2013-09-11 23:45:00,68.4,68.4,29.93,WSW,246,0.0,0.0,100,0.63,CLR,,0.63,WeatherDisplay:10.37,2013-09-12 03:45:00,
2013-09-11 23:48:00,68.3,68.3,29.93,WSW,246,0.0,0.0,100,0.63,CLR,,0.63,WeatherDisplay:10.37,2013-09-12 03:48:00,
2013-09-11 23:50:00,68.3,68.3,29.93,WSW,246,0.0,0.0,100,0.63,CLR,,0.63,WeatherDisplay:10.37,2013-09-12 03:50:00,
2013-09-11 23:51:00,68.3,68.3,29.93,WSW,246,0.0,0.0,100,0.63,CLR,,0.63,WeatherDisplay:10.37,2013-09-12 03:51:00,
2013-09-11 23:54:00,68.1,68.1,29.93,WSW,246,0.0,0.0,100,0.63,CLR,,0.63,WeatherDisplay:10.37,2013-09-12 03:54:00,
2013-09-11 23:55:00,68.1,68.1,29.93,WSW,246,0.0,0.0,100,0.63,CLR,,0.63,WeatherDisplay:10.37,2013-09-12 03:55:00,
2013-09-11 23:56:00,68.1,68.1,29.93,WSW,246,0.0,0.0,100,0.63,CLR,,0.63,WeatherDisplay:10.37,2013-09-12 03:56:00,
2013-09-11 23:59:00,67.9,67.9,29.93,WSW,246,0.0,0.0,100,0.60,CLR,,0.63,WeatherDisplay:10.37,2013-09-12 03:59:00,